Observation data for Clyde on 03/11/2018      Previous  Date  Next       Current Mesonet Observations  Soil Data  Daily Summary Page  Observations in Plain Language
KCL2 110600Z 07011KT 19/10 A298 RMK A01 T01870096  RH  055%=      5-min Rain = 0
KCL2 110601Z 08012KT 19/10 A298 RMK A01 T01870097  RH  056%=      5-min Rain = 0
KCL2 110602Z 07012KT 19/10 A298 RMK A01 T01880097  RH  055%=      5-min Rain = 0
KCL2 110603Z 07011KT 19/10 A298 RMK A01 T01880097  RH  055%=      5-min Rain = 0
KCL2 110604Z 06009KT 19/10 A298 RMK A01 T01880097  RH  055%=      5-min Rain = 0
KCL2 110605Z 05008KT 19/10 A298 RMK A01 T01880096  RH  055%=      5-min Rain = 0
KCL2 110606Z 03006KT 19/10 A298 RMK A01 T01860096  RH  056%=      5-min Rain = 0
KCL2 110607Z 00006KT 18/10 A298 RMK A01 T01840095  RH  056%=      5-min Rain = 0
KCL2 110608Z 00006KT 18/10 A298 RMK A01 T01830096  RH  057%=      5-min Rain = 0
KCL2 110609Z 02007KT 18/10 A298 RMK A01 T01820097  RH  057%=      5-min Rain = 0
KCL2 110610Z 03008KT 18/10 A298 RMK A01 T01820097  RH  057%=      5-min Rain = 0
KCL2 110611Z 04006KT 18/10 A298 RMK A01 T01810095  RH  057%=      5-min Rain = 0
KCL2 110612Z 04005KT 18/10 A298 RMK A01 T01790095  RH  058%=      5-min Rain = 0
KCL2 110613Z 04004KT 18/10 A298 RMK A01 T01770095  RH  059%=      5-min Rain = 0
KCL2 110614Z 05003KT 18/10 A298 RMK A01 T01760095  RH  059%=      5-min Rain = 0
KCL2 110615Z 07004KT 18/10 A298 RMK A01 T01760095  RH  059%=      5-min Rain = 0
KCL2 110616Z 07006KT 18/10 A298 RMK A01 T01760095  RH  059%=      5-min Rain = 0
KCL2 110617Z 06005KT 18/10 A298 RMK A01 T01760096  RH  059%=      5-min Rain = 0
KCL2 110618Z 06005KT 18/10 A298 RMK A01 T01760096  RH  059%=      5-min Rain = 0
KCL2 110619Z 07006KT 18/10 A298 RMK A01 T01760097  RH  060%=      5-min Rain = 0
KCL2 110620Z 07007KT 18/10 A298 RMK A01 T01770097  RH  060%=      5-min Rain = 0
KCL2 110621Z 08010KT 18/10 A298 RMK A01 T01790099  RH  059%=      5-min Rain = 0
KCL2 110622Z 07012KT 18/10 A298 RMK A01 T01820099  RH  058%=      5-min Rain = 0
KCL2 110623Z 07012KT 19/10 A298 RMK A01 T01860100  RH  057%=      5-min Rain = 0
KCL2 110624Z 07011KT 19/10 A298 RMK A01 T01890100  RH  056%=      5-min Rain = 0
KCL2 110625Z 07009KT 19/10 A298 RMK A01 T01890100  RH  056%=      5-min Rain = 0
KCL2 110626Z 07011KT 19/10 A298 RMK A01 T01890100  RH  056%=      5-min Rain = 0
KCL2 110627Z 07012KT 19/10 A298 RMK A01 T01890099  RH  056%=      5-min Rain = 0
KCL2 110628Z 07012KT 19/10 A298 RMK A01 T01890099  RH  056%=      5-min Rain = 0
KCL2 110629Z 07011KT 19/10 A298 RMK A01 T01900099  RH  056%=      5-min Rain = 0
KCL2 110630Z 07009KT 19/10 A298 RMK A01 T01900099  RH  055%=      5-min Rain = 0
KCL2 110631Z 08010KT 19/10 A298 RMK A01 T01900099  RH  055%=      5-min Rain = 0
KCL2 110632Z 07011KT 19/10 A298 RMK A01 T01890098  RH  056%=      5-min Rain = 0
KCL2 110633Z 07009KT 19/10 A298 RMK A01 T01880098  RH  056%=      5-min Rain = 0
KCL2 110634Z 07009KT 19/10 A298 RMK A01 T01870098  RH  056%=      5-min Rain = 0
KCL2 110635Z 07010KT 19/10 A298 RMK A01 T01860098  RH  056%=      5-min Rain = 0
KCL2 110636Z 07009KT 19/10 A298 RMK A01 T01850097  RH  057%=      5-min Rain = 0
KCL2 110637Z 07010KT 18/10 A298 RMK A01 T01840097  RH  057%=      5-min Rain = 0
KCL2 110638Z 07009KT 18/10 A298 RMK A01 T01830097  RH  057%=      5-min Rain = 0
KCL2 110639Z 07009KT 18/10 A298 RMK A01 T01820097  RH  057%=      5-min Rain = 0
KCL2 110640Z 07009KT 18/10 A298 RMK A01 T01820097  RH  058%=      5-min Rain = 0
KCL2 110641Z 07008KT 18/10 A298 RMK A01 T01820097  RH  058%=      5-min Rain = 0
KCL2 110642Z 07010KT 18/10 A298 RMK A01 T01820097  RH  058%=      5-min Rain = 0
KCL2 110643Z 07009KT 18/10 A298 RMK A01 T01820097  RH  058%=      5-min Rain = 0
KCL2 110644Z 07008KT 18/10 A298 RMK A01 T01810097  RH  058%=      5-min Rain = 0
KCL2 110645Z 07008KT 18/10 A298 RMK A01 T01810097  RH  058%=      5-min Rain = 0
KCL2 110646Z 07008KT 18/10 A298 RMK A01 T01800097  RH  058%=      5-min Rain = 0
KCL2 110647Z 07010KT 18/10 A298 RMK A01 T01790097  RH  059%=      5-min Rain = 0
KCL2 110648Z 07009KT 18/10 A298 RMK A01 T01790097  RH  059%=      5-min Rain = 0
KCL2 110649Z 07009KT 18/10 A298 RMK A01 T01800097  RH  059%=      5-min Rain = 0
KCL2 110650Z 07009KT 18/10 A298 RMK A01 T01800097  RH  058%=      5-min Rain = 0
KCL2 110651Z 07009KT 18/10 A2981 RMK A01 T01800097  RH  058%=      5-min Rain = 0
KCL2 110652Z 07009KT 18/10 A2981 RMK A01 T01790097  RH  059%=      5-min Rain = 0
KCL2 110653Z 07008KT 18/10 A2981 RMK A01 T01790097  RH  059%=      5-min Rain = 0
KCL2 110654Z 07008KT 18/10 A2981 RMK A01 T01780097  RH  059%=      5-min Rain = 0
KCL2 110655Z 07008KT 18/10 A2981 RMK A01 T01770097  RH  059%=      5-min Rain = 0
KCL2 110656Z 07009KT 18/10 A2981 RMK A01 T01770098  RH  060%=      5-min Rain = 0
KCL2 110657Z 07008KT 18/10 A2981 RMK A01 T01770097  RH  060%=      5-min Rain = 0
KCL2 110658Z 07008KT 18/10 A2981 RMK A01 T01760097  RH  060%=      5-min Rain = 0
KCL2 110659Z 07008KT 18/10 A2981 RMK A01 T01770098  RH  060%=      5-min Rain = 0
KCL2 110700Z 07008KT 18/10 A2981 RMK A01 T01760097  RH  060%=      5-min Rain = 0
KCL2 110701Z 07008KT 18/10 A2981 RMK A01 T01760098  RH  060%=      5-min Rain = 0
KCL2 110702Z 07008KT 18/10 A298 RMK A01 T01750098  RH  060%=      5-min Rain = 0
KCL2 110703Z 06007KT 18/10 A298 RMK A01 T01750098  RH  060%=      5-min Rain = 0
KCL2 110704Z 07007KT 18/10 A298 RMK A01 T01750098  RH  060%=      5-min Rain = 0
KCL2 110705Z 07007KT 17/10 A298 RMK A01 T01740098  RH  061%=      5-min Rain = 0
KCL2 110706Z 07007KT 17/10 A298 RMK A01 T01740097  RH  061%=      5-min Rain = 0
KCL2 110707Z 07007KT 17/10 A298 RMK A01 T01730097  RH  061%=      5-min Rain = 0
KCL2 110708Z 07008KT 17/10 A298 RMK A01 T01730098  RH  061%=      5-min Rain = 0
KCL2 110709Z 07006KT 17/10 A298 RMK A01 T01730097  RH  061%=      5-min Rain = 0
KCL2 110710Z 06007KT 17/10 A298 RMK A01 T01720097  RH  061%=      5-min Rain = 0
KCL2 110711Z 06007KT 17/10 A298 RMK A01 T01710096  RH  061%=      5-min Rain = 0
KCL2 110712Z 06006KT 17/10 A298 RMK A01 T01710096  RH  061%=      5-min Rain = 0
KCL2 110713Z 06007KT 17/10 A298 RMK A01 T01700096  RH  062%=      5-min Rain = 0
KCL2 110714Z 06007KT 17/10 A298 RMK A01 T01690095  RH  062%=      5-min Rain = 0
KCL2 110715Z 06007KT 17/10 A298 RMK A01 T01690095  RH  062%=      5-min Rain = 0
KCL2 110716Z 06008KT 17/09 A298 RMK A01 T01670094  RH  062%=      5-min Rain = 0
KCL2 110717Z 06009KT 17/09 A298 RMK A01 T01680094  RH  062%=      5-min Rain = 0
KCL2 110718Z 06009KT 17/09 A298 RMK A01 T01690094  RH  061%=      5-min Rain = 0
KCL2 110719Z 07007KT 17/09 A298 RMK A01 T01690093  RH  061%=      5-min Rain = 0
KCL2 110720Z 07007KT 17/09 A298 RMK A01 T01700093  RH  061%=      5-min Rain = 0
KCL2 110721Z 07008KT 17/09 A298 RMK A01 T01690093  RH  061%=      5-min Rain = 0
KCL2 110722Z 07008KT 17/09 A298 RMK A01 T01700093  RH  060%=      5-min Rain = 0
KCL2 110723Z 07008KT 17/09 A298 RMK A01 T01710093  RH  060%=      5-min Rain = 0
KCL2 110724Z 07009KT 17/09 A298 RMK A01 T01710092  RH  060%=      5-min Rain = 0
KCL2 110725Z 07009KT 17/09 A298 RMK A01 T01710091  RH  059%=      5-min Rain = 0
KCL2 110726Z 06008KT 17/09 A298 RMK A01 T01720091  RH  059%=      5-min Rain = 0
KCL2 110727Z 06009KT 17/09 A298 RMK A01 T01720091  RH  059%=      5-min Rain = 0
KCL2 110728Z 06009KT 17/09 A2981 RMK A01 T01710091  RH  059%=      5-min Rain = 0
KCL2 110729Z 06008KT 17/09 A2981 RMK A01 T01710090  RH  059%=      5-min Rain = 0
KCL2 110730Z 06008KT 17/09 A2981 RMK A01 T01700090  RH  059%=      5-min Rain = 0
KCL2 110731Z 06008KT 17/09 A2981 RMK A01 T01700090  RH  059%=      5-min Rain = 0
KCL2 110732Z 06009KT 17/09 A2981 RMK A01 T01690089  RH  060%=      5-min Rain = 0
KCL2 110733Z 06009KT 17/09 A2981 RMK A01 T01680089  RH  060%=      5-min Rain = 0
KCL2 110734Z 06009KT 17/09 A2981 RMK A01 T01680089  RH  059%=      5-min Rain = 0
KCL2 110735Z 06009KT 17/09 A2981 RMK A01 T01680088  RH  059%=      5-min Rain = 0
KCL2 110736Z 05009KT 17/09 A2981 RMK A01 T01680088  RH  059%=      5-min Rain = 0
KCL2 110737Z 05007KT 17/09 A2981 RMK A01 T01670088  RH  060%=      5-min Rain = 0
KCL2 110738Z 04007KT 17/09 A2982 RMK A01 T01660088  RH  060%=      5-min Rain = 0
KCL2 110739Z 04007KT 17/09 A2982 RMK A01 T01650087  RH  060%=      5-min Rain = 0
KCL2 110740Z 03007KT 16/09 A2982 RMK A01 T01640087  RH  060%=      5-min Rain = 0
KCL2 110741Z 02007KT 16/09 A2982 RMK A01 T01630087  RH  061%=      5-min Rain = 0
KCL2 110742Z 02007KT 16/09 A2982 RMK A01 T01630088  RH  061%=      5-min Rain = 0
KCL2 110743Z 02005KT 16/09 A2982 RMK A01 T01620088  RH  061%=      5-min Rain = 0
KCL2 110744Z 01006KT 16/09 A2982 RMK A01 T01610088  RH  062%=      5-min Rain = 0
KCL2 110745Z 02006KT 16/09 A2983 RMK A01 T01600088  RH  062%=      5-min Rain = 0
KCL2 110746Z 01007KT 16/09 A2983 RMK A01 T01600088  RH  062%=      5-min Rain = 0
KCL2 110747Z 01007KT 16/09 A2983 RMK A01 T01590088  RH  063%=      5-min Rain = 0
KCL2 110748Z 00007KT 16/09 A2983 RMK A01 T01580088  RH  063%=      5-min Rain = 0
KCL2 110749Z 00007KT 16/09 A2984 RMK A01 T01570088  RH  063%=      5-min Rain = 0
KCL2 110750Z 00008KT 16/09 A2984 RMK A01 T01560087  RH  063%=      5-min Rain = 0
KCL2 110751Z 01008KT 16/09 A2984 RMK A01 T01560087  RH  063%=      5-min Rain = 0
KCL2 110752Z 01009KT 16/09 A2984 RMK A01 T01560086  RH  063%=      5-min Rain = 0
KCL2 110753Z 01009KT 16/09 A2984 RMK A01 T01560085  RH  063%=      5-min Rain = 0
KCL2 110754Z 01007KT 16/09 A2984 RMK A01 T01580085  RH  062%=      5-min Rain = 0
KCL2 110755Z 01008KT 16/08 A2984 RMK A01 T01590084  RH  061%=      5-min Rain = 0
KCL2 110756Z 01007KT 16/08 A2984 RMK A01 T01610083  RH  060%=      5-min Rain = 0
KCL2 110757Z 02007KT 16/08 A2984 RMK A01 T01620083  RH  059%=      5-min Rain = 0
KCL2 110758Z 02007KT 16/08 A2984 RMK A01 T01630083  RH  059%=      5-min Rain = 0
KCL2 110759Z 02007KT 16/08 A2984 RMK A01 T01630083  RH  059%=      5-min Rain = 0
KCL2 110800Z 02007KT 16/08 A2984 RMK A01 T01630083  RH  059%=      5-min Rain = 0
KCL2 110801Z 01008KT 16/08 A2984 RMK A01 T01630083  RH  059%=      5-min Rain = 0
KCL2 110802Z 02008KT 16/08 A2984 RMK A01 T01630084  RH  059%=      5-min Rain = 0
KCL2 110803Z 01009KT 16/08 A2985 RMK A01 T01630083  RH  059%=      5-min Rain = 0
KCL2 110804Z 01008KT 16/08 A2985 RMK A01 T01630083  RH  059%=      5-min Rain = 0
KCL2 110805Z 02008KT 16/08 A2984 RMK A01 T01630082  RH  059%=      5-min Rain = 0
KCL2 110806Z 02009KT 16/08 A2984 RMK A01 T01630082  RH  059%=      5-min Rain = 0
KCL2 110807Z 02009KT 16/08 A2984 RMK A01 T01630082  RH  058%=      5-min Rain = 0
KCL2 110808Z 02009KT 16/08 A2984 RMK A01 T01630082  RH  059%=      5-min Rain = 0
KCL2 110809Z 02008KT 16/08 A2984 RMK A01 T01630082  RH  059%=      5-min Rain = 0
KCL2 110810Z 01009KT 16/08 A2984 RMK A01 T01630081  RH  058%=      5-min Rain = 0
KCL2 110811Z 01010KT 16/08 A2985 RMK A01 T01630079  RH  058%=      5-min Rain = 0
KCL2 110812Z 02010KT 16/08 A2985 RMK A01 T01630079  RH  057%=      5-min Rain = 0
KCL2 110813Z 02011KT 16/08 A2985 RMK A01 T01630078  RH  057%=      5-min Rain = 0
KCL2 110814Z 02011KT 16/08 A2985 RMK A01 T01620077  RH  057%=      5-min Rain = 0
KCL2 110815Z 02013G18KT 16/08 A2985 RMK A01 T01620075  RH  056%=      5-min Rain = 0
KCL2 110816Z 02015KT 16/07 A2985 RMK A01 T01630074  RH  056%=      5-min Rain = 0
KCL2 110817Z 02014KT 16/07 A2985 RMK A01 T01630072  RH  054%=      5-min Rain = 0
KCL2 110818Z 02012KT 16/07 A2985 RMK A01 T01640072  RH  054%=      5-min Rain = 0
KCL2 110819Z 01015G20KT 16/07 A2985 RMK A01 T01640072  RH  054%=      5-min Rain = 0
KCL2 110820Z 01014KT 16/07 A2985 RMK A01 T01640072  RH  055%=      5-min Rain = 0
KCL2 110821Z 01012G17KT 16/07 A2985 RMK A01 T01640074  RH  055%=      5-min Rain = 0
KCL2 110822Z 01013KT 16/08 A2985 RMK A01 T01630075  RH  056%=      5-min Rain = 0
KCL2 110823Z 02012KT 16/08 A2985 RMK A01 T01630077  RH  057%=      5-min Rain = 0
KCL2 110824Z 02015KT 16/08 A2985 RMK A01 T01620079  RH  058%=      5-min Rain = 0
KCL2 110825Z 02016KT 16/08 A2985 RMK A01 T01620081  RH  059%=      5-min Rain = 0
KCL2 110826Z 02013KT 16/08 A2985 RMK A01 T01610082  RH  060%=      5-min Rain = 0
KCL2 110827Z 02010KT 16/08 A2985 RMK A01 T01600083  RH  060%=      5-min Rain = 0
KCL2 110828Z 02013KT 16/08 A2985 RMK A01 T01590084  RH  061%=      5-min Rain = 0
KCL2 110829Z 02012KT 16/09 A2985 RMK A01 T01580085  RH  062%=      5-min Rain = 0
KCL2 110830Z 02014KT 16/09 A2985 RMK A01 T01580087  RH  063%=      5-min Rain = 0
KCL2 110831Z 02013G18KT 16/09 A2985 RMK A01 T01580090  RH  064%=      5-min Rain = 0
KCL2 110832Z 02013G18KT 16/09 A2986 RMK A01 T01580092  RH  065%=      5-min Rain = 0
KCL2 110833Z 02012G17KT 16/09 A2986 RMK A01 T01570093  RH  066%=      5-min Rain = 0
KCL2 110834Z 02014KT 16/10 A2986 RMK A01 T01570096  RH  067%=      5-min Rain = 0
KCL2 110835Z 03012KT 16/10 A2986 RMK A01 T01560098  RH  068%=      5-min Rain = 0
KCL2 110836Z 02016KT 16/10 A2986 RMK A01 T01560101  RH  070%=      5-min Rain = 0
KCL2 110837Z 02014KT 16/10 A2986 RMK A01 T01550104  RH  072%=      5-min Rain = 0
KCL2 110838Z 02015G21KT 16/11 A2986 RMK A01 T01560107  RH  073%=      5-min Rain = 0
KCL2 110839Z 02016KT 16/11 A2986 RMK A01 T01560108  RH  074%=      5-min Rain = 0
KCL2 110840Z 02015KT 16/11 A2986 RMK A01 T01560110  RH  074%=      5-min Rain = 0
KCL2 110841Z 02012KT 16/11 A2986 RMK A01 T01550111  RH  075%=      5-min Rain = 0
KCL2 110842Z 02016KT 16/11 A2986 RMK A01 T01550112  RH  075%=      5-min Rain = 0
KCL2 110843Z 02012G18KT 16/11 A2986 RMK A01 T01550113  RH  076%=      5-min Rain = 0
KCL2 110844Z 01013G20KT 16/11 A2986 RMK A01 T01550113  RH  076%=      5-min Rain = 0
KCL2 110845Z 02013G19KT 16/11 A2986 RMK A01 T01550114  RH  077%=      5-min Rain = 0
KCL2 110846Z 02013KT 16/12 A2986 RMK A01 T01550115  RH  077%=      5-min Rain = 0
KCL2 110847Z 02014KT 16/12 A2987 RMK A01 T01550116  RH  078%=      5-min Rain = 0
KCL2 110848Z 01015G21KT 16/12 A2987 RMK A01 T01550117  RH  078%=      5-min Rain = 0
KCL2 110849Z 02015KT 16/12 A2987 RMK A01 T01550117  RH  078%=      5-min Rain = 0
KCL2 110850Z 02016KT 16/12 A2987 RMK A01 T01550118  RH  078%=      5-min Rain = 0
KCL2 110851Z 02014KT 16/12 A2987 RMK A01 T01560119  RH  078%=      5-min Rain = 0
KCL2 110852Z 01016KT 16/12 A2987 RMK A01 T01560119  RH  078%=      5-min Rain = 0
KCL2 110853Z 02011G18KT 16/12 A2987 RMK A01 T01560119  RH  078%=      5-min Rain = 0
KCL2 110854Z 01017G22KT 16/12 A2987 RMK A01 T01560118  RH  078%=      5-min Rain = 0
KCL2 110855Z 02011KT 16/12 A2987 RMK A01 T01570118  RH  078%=      5-min Rain = 0
KCL2 110856Z 01012KT 16/12 A2987 RMK A01 T01570118  RH  078%=      5-min Rain = 0
KCL2 110857Z 01012KT 16/12 A2987 RMK A01 T01570118  RH  078%=      5-min Rain = 0
KCL2 110858Z 01015KT 16/12 A2987 RMK A01 T01570118  RH  077%=      5-min Rain = 0
KCL2 110859Z 01013KT 16/12 A2988 RMK A01 T01570117  RH  077%=      5-min Rain = 0
KCL2 110900Z 01013KT 16/12 A2988 RMK A01 T01570117  RH  077%=      5-min Rain = 0
KCL2 110901Z 01014KT 16/12 A2988 RMK A01 T01580117  RH  077%=      5-min Rain = 0
KCL2 110902Z 00016G22KT 16/12 A2988 RMK A01 T01580116  RH  076%=      5-min Rain = 0
KCL2 110903Z 01016G22KT 16/12 A2988 RMK A01 T01580116  RH  076%=      5-min Rain = 0
KCL2 110904Z 01017KT 16/12 A2988 RMK A01 T01580116  RH  076%=      5-min Rain = 0
KCL2 110905Z 00017KT 16/12 A2988 RMK A01 T01580116  RH  076%=      5-min Rain = 0
KCL2 110906Z 01015KT 16/12 A2989 RMK A01 T01580115  RH  076%=      5-min Rain = 0
KCL2 110907Z 00016G21KT 16/12 A2989 RMK A01 T01580115  RH  076%=      5-min Rain = 0
KCL2 110908Z 00017G22KT 16/12 A2989 RMK A01 T01580115  RH  076%=      5-min Rain = 0
KCL2 110909Z 01015G21KT 16/12 A2989 RMK A01 T01580115  RH  076%=      5-min Rain = 0
KCL2 110910Z 01014KT 16/12 A2989 RMK A01 T01580115  RH  076%=      5-min Rain = 0
KCL2 110911Z 01018G23KT 16/12 A2989 RMK A01 T01570115  RH  076%=      5-min Rain = 0
KCL2 110912Z 01018KT 16/11 A2989 RMK A01 T01570114  RH  076%=      5-min Rain = 0
KCL2 110913Z 00017G23KT 16/11 A299 RMK A01 T01580114  RH  076%=      5-min Rain = 0
KCL2 110914Z 00018KT 16/11 A299 RMK A01 T01570114  RH  075%=      5-min Rain = 0
KCL2 110915Z 01015G21KT 16/11 A299 RMK A01 T01570114  RH  075%=      5-min Rain = 0
KCL2 110916Z 01016G23KT 16/11 A299 RMK A01 T01570114  RH  076%=      5-min Rain = 0
KCL2 110917Z 00019G24KT 16/12 A299 RMK A01 T01570115  RH  076%=      5-min Rain = 0
KCL2 110918Z 01017G25KT 16/12 A299 RMK A01 T01580115  RH  076%=      5-min Rain = 0
KCL2 110919Z 01019G24KT 16/12 A299 RMK A01 T01570115  RH  076%=      5-min Rain = 0
KCL2 110920Z 00018KT 16/12 A299 RMK A01 T01570115  RH  076%=      5-min Rain = 0
KCL2 110921Z 01016KT 16/12 A299 RMK A01 T01570115  RH  076%=      5-min Rain = 0
KCL2 110922Z 01020G25KT 16/12 A299 RMK A01 T01560115  RH  077%=      5-min Rain = 0
KCL2 110923Z 01017G25KT 16/12 A299 RMK A01 T01550115  RH  077%=      5-min Rain = 0
KCL2 110924Z 01019G25KT 16/12 A299 RMK A01 T01550115  RH  077%=      5-min Rain = 0
KCL2 110925Z 01021KT 16/12 A299 RMK A01 T01550116  RH  077%=      5-min Rain = 0
KCL2 110926Z 01020G26KT 16/12 A299 RMK A01 T01550116  RH  078%=      5-min Rain = 0
KCL2 110927Z 00023KT 15/12 A299 RMK A01 T01540116  RH  078%=      5-min Rain = 0
KCL2 110928Z 00019G24KT 15/12 A299 RMK A01 T01540116  RH  078%=      5-min Rain = 0
KCL2 110929Z 00018G24KT 15/12 A299 RMK A01 T01540116  RH  078%=      5-min Rain = 0
KCL2 110930Z 00021G27KT 15/12 A299 RMK A01 T01540116  RH  078%=      5-min Rain = 0
KCL2 110931Z 01017G24KT 15/12 A2991 RMK A01 T01530117  RH  079%=      5-min Rain = 0
KCL2 110932Z 01020G27KT 15/12 A2991 RMK A01 T01530116  RH  079%=      5-min Rain = 0
KCL2 110933Z 02017KT 15/12 A2991 RMK A01 T01530117  RH  079%=      5-min Rain = 0
KCL2 110934Z 01021G27KT 15/12 A2991 RMK A01 T01520117  RH  079%=      5-min Rain = 0
KCL2 110935Z 01020G25KT 15/12 A2991 RMK A01 T01520117  RH  079%=      5-min Rain = 0
KCL2 110936Z 01016KT 15/12 A2991 RMK A01 T01520117  RH  080%=      5-min Rain = 0
KCL2 110937Z 00017KT 15/12 A2991 RMK A01 T01510117  RH  080%=      5-min Rain = 0
KCL2 110938Z 00016G22KT 15/12 A2991 RMK A01 T01510117  RH  080%=      5-min Rain = 0
KCL2 110939Z 01021G26KT 15/12 A2991 RMK A01 T01500117  RH  080%=      5-min Rain = 0
KCL2 110940Z 00016G22KT 15/12 A2991 RMK A01 T01500117  RH  080%=      5-min Rain = 0
KCL2 110941Z 00013KT 15/12 A2991 RMK A01 T01500117  RH  081%=      5-min Rain = 0
KCL2 110942Z 00013KT 15/12 A2991 RMK A01 T01490116  RH  081%=      5-min Rain = 0
KCL2 110943Z 01013KT 15/12 A2991 RMK A01 T01480116  RH  081%=      5-min Rain = 0
KCL2 110944Z 01013G18KT 15/12 A2991 RMK A01 T01480116  RH  081%=      5-min Rain = 0
KCL2 110945Z 01015KT 15/12 A2991 RMK A01 T01480116  RH  081%=      5-min Rain = 0
KCL2 110946Z 01016G21KT 15/12 A2991 RMK A01 T01480117  RH  082%=      5-min Rain = 0
KCL2 110947Z 01016KT 15/12 A2991 RMK A01 T01480117  RH  082%=      5-min Rain = 0
KCL2 110948Z 02017G22KT 15/12 A2991 RMK A01 T01480117  RH  081%=      5-min Rain = 0
KCL2 110949Z 01018G24KT 15/12 A2991 RMK A01 T01480117  RH  081%=      5-min Rain = 0
KCL2 110950Z 01021KT 15/12 A2991 RMK A01 T01480116  RH  081%=      5-min Rain = 0
KCL2 110951Z 01020KT 15/12 A2991 RMK A01 T01480116  RH  081%=      5-min Rain = 0
KCL2 110952Z 01017KT 15/12 A2991 RMK A01 T01480116  RH  081%=      5-min Rain = 0
KCL2 110953Z 01021KT 15/12 A2991 RMK A01 T01480116  RH  081%=      5-min Rain = 0
KCL2 110954Z 01017KT 15/12 A2991 RMK A01 T01480116  RH  081%=      5-min Rain = 0
KCL2 110955Z 01019G25KT 15/12 A2991 RMK A01 T01470115  RH  081%=      5-min Rain = 0
KCL2 110956Z 01015KT 15/12 A2991 RMK A01 T01470115  RH  081%=      5-min Rain = 0
KCL2 110957Z 01019KT 15/11 A2991 RMK A01 T01470114  RH  081%=      5-min Rain = 0
KCL2 110958Z 01018G23KT 15/11 A2991 RMK A01 T01460114  RH  081%=      5-min Rain = 0
KCL2 110959Z 01017G23KT 15/11 A2991 RMK A01 T01460113  RH  080%=      5-min Rain = 0
KCL2 111000Z 01019KT 15/11 A2991 RMK A01 T01460112  RH  080%=      5-min Rain = 0
KCL2 111001Z 01013KT 15/11 A2991 RMK A01 T01450112  RH  080%=      5-min Rain = 0
KCL2 111002Z 01015G24KT 15/11 A2991 RMK A01 T01450111  RH  080%=      5-min Rain = 0
KCL2 111003Z 01018G24KT 14/11 A2992 RMK A01 T01440109  RH  080%=      5-min Rain = 0
KCL2 111004Z 01018G23KT 14/11 A2992 RMK A01 T01440107  RH  079%=      5-min Rain = 0
KCL2 111005Z 01016KT 14/11 A2992 RMK A01 T01440107  RH  078%=      5-min Rain = 0
KCL2 111006Z 01015KT 14/11 A2992 RMK A01 T01440107  RH  078%=      5-min Rain = 0
KCL2 111007Z 01016G23KT 14/11 A2992 RMK A01 T01440106  RH  078%=      5-min Rain = 0
KCL2 111008Z 01013G19KT 14/11 A2992 RMK A01 T01430105  RH  078%=      5-min Rain = 0
KCL2 111009Z 01015G20KT 14/10 A2992 RMK A01 T01430104  RH  077%=      5-min Rain = 0
KCL2 111010Z 01016G21KT 14/10 A2992 RMK A01 T01420103  RH  077%=      5-min Rain = 0
KCL2 111011Z 01016G23KT 14/10 A2992 RMK A01 T01420103  RH  077%=      5-min Rain = 0
KCL2 111012Z 01018KT 14/10 A2992 RMK A01 T01420102  RH  077%=      5-min Rain = 0
KCL2 111013Z 00014KT 14/10 A2992 RMK A01 T01420102  RH  077%=      5-min Rain = 0
KCL2 111014Z 01016G21KT 14/10 A2992 RMK A01 T01420102  RH  077%=      5-min Rain = 0
KCL2 111015Z 00015KT 14/10 A2992 RMK A01 T01410102  RH  077%=      5-min Rain = 0
KCL2 111016Z 01014KT 14/10 A2992 RMK A01 T01410102  RH  077%=      5-min Rain = 0
KCL2 111017Z 00014KT 14/10 A2992 RMK A01 T01410101  RH  077%=      5-min Rain = 0
KCL2 111018Z 01017G23KT 14/10 A2992 RMK A01 T01400101  RH  077%=      5-min Rain = 0
KCL2 111019Z 01016KT 14/10 A2992 RMK A01 T01400100  RH  077%=      5-min Rain = 0
KCL2 111020Z 36015G20KT 14/10 A2992 RMK A01 T01400099  RH  076%=      5-min Rain = 0
KCL2 111021Z 36019KT 14/10 A2992 RMK A01 T01390097  RH  076%=      5-min Rain = 0
KCL2 111022Z 01017G22KT 14/09 A2993 RMK A01 T01380093  RH  074%=      5-min Rain = 0
KCL2 111023Z 00017KT 14/09 A2993 RMK A01 T01380089  RH  072%=      5-min Rain = 0
KCL2 111024Z 36020KT 14/09 A2993 RMK A01 T01380085  RH  070%=      5-min Rain = 0
KCL2 111025Z 00019KT 14/08 A2993 RMK A01 T01370080  RH  068%=      5-min Rain = 0
KCL2 111026Z 00021G28KT 14/07 A2993 RMK A01 T01360072  RH  065%=      5-min Rain = 0
KCL2 111027Z 01021G26KT 14/07 A2994 RMK A01 T01360066  RH  062%=      5-min Rain = 0
KCL2 111028Z 01019G26KT 14/06 A2994 RMK A01 T01350061  RH  061%=      5-min Rain = 0
KCL2 111029Z 01019KT 14/06 A2994 RMK A01 T01350059  RH  060%=      5-min Rain = 0
KCL2 111030Z 02018KT 13/06 A2994 RMK A01 T01340056  RH  059%=      5-min Rain = 0
KCL2 111031Z 01016G23KT 13/05 A2994 RMK A01 T01330053  RH  059%=      5-min Rain = 0
KCL2 111032Z 01019KT 13/05 A2994 RMK A01 T01320051  RH  058%=      5-min Rain = 0
KCL2 111033Z 01017G22KT 13/05 A2994 RMK A01 T01320050  RH  058%=      5-min Rain = 0
KCL2 111034Z 01016G24KT 13/05 A2994 RMK A01 T01320050  RH  058%=      5-min Rain = 0
KCL2 111035Z 01018G26KT 13/05 A2994 RMK A01 T01310050  RH  058%=      5-min Rain = 0
KCL2 111036Z 01020G26KT 13/05 A2994 RMK A01 T01300048  RH  057%=      5-min Rain = 0
KCL2 111037Z 01019G24KT 13/05 A2995 RMK A01 T01300047  RH  057%=      5-min Rain = 0
KCL2 111038Z 01016KT 13/05 A2995 RMK A01 T01300046  RH  057%=      5-min Rain = 0
KCL2 111039Z 01017KT 13/05 A2995 RMK A01 T01290046  RH  057%=      5-min Rain = 0
KCL2 111040Z 02017G22KT 13/05 A2995 RMK A01 T01290046  RH  057%=      5-min Rain = 0
KCL2 111041Z 01018G24KT 13/05 A2995 RMK A01 T01280046  RH  057%=      5-min Rain = 0
KCL2 111042Z 02018KT 13/05 A2995 RMK A01 T01280045  RH  057%=      5-min Rain = 0
KCL2 111043Z 02018G24KT 13/05 A2995 RMK A01 T01280046  RH  057%=      5-min Rain = 0
KCL2 111044Z 02018G24KT 13/05 A2995 RMK A01 T01270046  RH  058%=      5-min Rain = 0
KCL2 111045Z 02017G27KT 13/05 A2995 RMK A01 T01270046  RH  058%=      5-min Rain = 0
KCL2 111046Z 02017KT 13/05 A2995 RMK A01 T01260046  RH  058%=      5-min Rain = 0
KCL2 111047Z 02020G28KT 13/05 A2995 RMK A01 T01260046  RH  058%=      5-min Rain = 0
KCL2 111048Z 02017G23KT 13/05 A2995 RMK A01 T01260046  RH  058%=      5-min Rain = 0
KCL2 111049Z 01016KT 13/05 A2995 RMK A01 T01260046  RH  058%=      5-min Rain = 0
KCL2 111050Z 02018G23KT 13/05 A2996 RMK A01 T01260046  RH  058%=      5-min Rain = 0
KCL2 111051Z 02021KT 13/05 A2996 RMK A01 T01260047  RH  058%=      5-min Rain = 0
KCL2 111052Z 02015G20KT 13/05 A2996 RMK A01 T01250046  RH  058%=      5-min Rain = 0
KCL2 111053Z 02021G26KT 13/05 A2996 RMK A01 T01250046  RH  059%=      5-min Rain = 0
KCL2 111054Z 02017KT 13/05 A2996 RMK A01 T01250046  RH  058%=      5-min Rain = 0
KCL2 111055Z 02019G24KT 13/05 A2996 RMK A01 T01250045  RH  058%=      5-min Rain = 0
KCL2 111056Z 02017G24KT 13/05 A2997 RMK A01 T01250046  RH  058%=      5-min Rain = 0
KCL2 111057Z 02022G28KT 13/05 A2997 RMK A01 T01250046  RH  058%=      5-min Rain = 0
KCL2 111058Z 02020G26KT 13/05 A2997 RMK A01 T01260045  RH  058%=      5-min Rain = 0
KCL2 111059Z 02020G26KT 13/05 A2997 RMK A01 T01260045  RH  058%=      5-min Rain = 0
KCL2 111100Z 02016G21KT 13/05 A2997 RMK A01 T01260046  RH  058%=      5-min Rain = 0
KCL2 111101Z 02016KT 13/05 A2997 RMK A01 T01260045  RH  058%=      5-min Rain = 0
KCL2 111102Z 02015G20KT 13/05 A2997 RMK A01 T01260045  RH  058%=      5-min Rain = 0
KCL2 111103Z 02016G22KT 13/05 A2998 RMK A01 T01250045  RH  058%=      5-min Rain = 0
KCL2 111104Z 02019G24KT 13/04 A2998 RMK A01 T01250044  RH  058%=      5-min Rain = 0
KCL2 111105Z 02022KT 13/04 A2998 RMK A01 T01250043  RH  057%=      5-min Rain = 0
KCL2 111106Z 02021G26KT 13/04 A2998 RMK A01 T01260043  RH  057%=      5-min Rain = 0
KCL2 111107Z 02021G26KT 13/04 A2998 RMK A01 T01260042  RH  056%=      5-min Rain = 0
KCL2 111108Z 02017G22KT 13/04 A2998 RMK A01 T01260042  RH  057%=      5-min Rain = 0
KCL2 111109Z 03020G25KT 13/04 A2998 RMK A01 T01260041  RH  056%=      5-min Rain = 0
KCL2 111110Z 03018G24KT 13/04 A2998 RMK A01 T01260041  RH  056%=      5-min Rain = 0
KCL2 111111Z 02025KT 13/04 A2998 RMK A01 T01260039  RH  055%=      5-min Rain = 0
KCL2 111112Z 02022KT 13/04 A2998 RMK A01 T01270037  RH  054%=      5-min Rain = 0
KCL2 111113Z 02020G25KT 13/04 A2999 RMK A01 T01260035  RH  054%=      5-min Rain = 0
KCL2 111114Z 03018G24KT 13/04 A2999 RMK A01 T01260036  RH  054%=      5-min Rain = 0
KCL2 111115Z 03022G27KT 13/04 A2999 RMK A01 T01270035  RH  054%=      5-min Rain = 0
KCL2 111116Z 02023G30KT 13/03 A2999 RMK A01 T01260033  RH  053%=      5-min Rain = 0
KCL2 111117Z 02017G23KT 13/03 A2999 RMK A01 T01260031  RH  052%=      5-min Rain = 0
KCL2 111118Z 02018KT 13/03 A2999 RMK A01 T01260032  RH  053%=      5-min Rain = 0
KCL2 111119Z 02020KT 13/03 A2999 RMK A01 T01250031  RH  053%=      5-min Rain = 0
KCL2 111120Z 03018G25KT 13/03 A2999 RMK A01 T01250029  RH  052%=      5-min Rain = 0
KCL2 111121Z 02020KT 12/03 A2999 RMK A01 T01240028  RH  052%=      5-min Rain = 0
KCL2 111122Z 03022G29KT 12/03 A2999 RMK A01 T01230026  RH  052%=      5-min Rain = 0
KCL2 111123Z 02023G30KT 12/03 A2999 RMK A01 T01230025  RH  051%=      5-min Rain = 0
KCL2 111124Z 03024G29KT 12/02 A2999 RMK A01 T01230023  RH  050%=      5-min Rain = 0
KCL2 111125Z 02023G28KT 12/02 A2999 RMK A01 T01230022  RH  050%=      5-min Rain = 0
KCL2 111126Z 02019KT 12/02 A2999 RMK A01 T01220022  RH  050%=      5-min Rain = 0
KCL2 111127Z 03021KT 12/02 A2999 RMK A01 T01220022  RH  050%=      5-min Rain = 0
KCL2 111128Z 04023G31KT 12/02 A2999 RMK A01 T01220022  RH  050%=      5-min Rain = 0
KCL2 111129Z 02019G27KT 12/02 A2999 RMK A01 T01210021  RH  050%=      5-min Rain = 0
KCL2 111130Z 03020KT 12/02 A2999 RMK A01 T01210021  RH  050%=      5-min Rain = 0
KCL2 111131Z 02019G26KT 12/02 A2999 RMK A01 T01210021  RH  050%=      5-min Rain = 0
KCL2 111132Z 03024G31KT 12/02 A2999 RMK A01 T01210020  RH  050%=      5-min Rain = 0
KCL2 111133Z 03019G25KT 12/02 A2999 RMK A01 T01210019  RH  050%=      5-min Rain = 0
KCL2 111134Z 03020G29KT 12/02 A30 RMK A01 T01210020  RH  050%=      5-min Rain = 0
KCL2 111135Z 02021KT 12/02 A30 RMK A01 T01200020  RH  050%=      5-min Rain = 0
KCL2 111136Z 03022KT 12/02 A30 RMK A01 T01200019  RH  050%=      5-min Rain = 0
KCL2 111137Z 02018G24KT 12/02 A30 RMK A01 T01200019  RH  050%=      5-min Rain = 0
KCL2 111138Z 03023G30KT 12/02 A30 RMK A01 T01200019  RH  050%=      5-min Rain = 0
KCL2 111139Z 02021G26KT 12/02 A30 RMK A01 T01200018  RH  050%=      5-min Rain = 0
KCL2 111140Z 03021KT 12/02 A30 RMK A01 T01200018  RH  050%=      5-min Rain = 0
KCL2 111141Z 02018G23KT 12/02 A30 RMK A01 T01210019  RH  050%=      5-min Rain = 0
KCL2 111142Z 02017KT 12/02 A30 RMK A01 T01210019  RH  050%=      5-min Rain = 0
KCL2 111143Z 02023G28KT 12/02 A30 RMK A01 T01210019  RH  050%=      5-min Rain = 0
KCL2 111144Z 03025KT 12/02 A30 RMK A01 T01200018  RH  049%=      5-min Rain = 0
KCL2 111145Z 03022G29KT 12/02 A30 RMK A01 T01210018  RH  049%=      5-min Rain = 0
KCL2 111146Z 03019G25KT 12/02 A30 RMK A01 T01210018  RH  049%=      5-min Rain = 0
KCL2 111147Z 03019KT 12/02 A3001 RMK A01 T01210018  RH  049%=      5-min Rain = 0
KCL2 111148Z 03020KT 12/02 A3001 RMK A01 T01210019  RH  050%=      5-min Rain = 0
KCL2 111149Z 02016KT 12/02 A3001 RMK A01 T01210019  RH  050%=      5-min Rain = 0
KCL2 111150Z 02018G24KT 12/02 A3001 RMK A01 T01210019  RH  050%=      5-min Rain = 0
KCL2 111151Z 02016KT 12/02 A3001 RMK A01 T01200019  RH  050%=      5-min Rain = 0
KCL2 111152Z 03016G23KT 12/02 A3001 RMK A01 T01200019  RH  050%=      5-min Rain = 0
KCL2 111153Z 03017G24KT 12/02 A3001 RMK A01 T01200019  RH  050%=      5-min Rain = 0
KCL2 111154Z 03019G25KT 12/02 A3001 RMK A01 T01200019  RH  050%=      5-min Rain = 0
KCL2 111155Z 02020G26KT 12/02 A3001 RMK A01 T01200019  RH  050%=      5-min Rain = 0
KCL2 111156Z 02019G27KT 12/02 A3001 RMK A01 T01200018  RH  050%=      5-min Rain = 0
KCL2 111157Z 02020KT 12/02 A3001 RMK A01 T01200018  RH  050%=      5-min Rain = 0
KCL2 111158Z 03022KT 12/02 A3001 RMK A01 T01200018  RH  049%=      5-min Rain = 0
KCL2 111159Z 03020KT 12/02 A3001 RMK A01 T01200018  RH  049%=      5-min Rain = 0
KCL2 111200Z 03019KT 12/02 A3001 RMK A01 T01200017  RH  049%=      5-min Rain = 0
KCL2 111201Z 03020KT 12/02 A3002 RMK A01 T01200018  RH  049%=      5-min Rain = 0
KCL2 111202Z 03022G27KT 12/02 A3002 RMK A01 T01200018  RH  049%=      5-min Rain = 0
KCL2 111203Z 03019G27KT 12/02 A3002 RMK A01 T01200017  RH  049%=      5-min Rain = 0
KCL2 111204Z 03016G23KT 12/02 A3002 RMK A01 T01200017  RH  049%=      5-min Rain = 0
KCL2 111205Z 02023G28KT 12/02 A3002 RMK A01 T01200018  RH  050%=      5-min Rain = 0
KCL2 111206Z 03018KT 12/02 A3002 RMK A01 T01200017  RH  049%=      5-min Rain = 0
KCL2 111207Z 03018G23KT 12/02 A3002 RMK A01 T01200018  RH  049%=      5-min Rain = 0
KCL2 111208Z 02020KT 12/02 A3002 RMK A01 T01200017  RH  049%=      5-min Rain = 0
KCL2 111209Z 02018KT 12/02 A3002 RMK A01 T01190016  RH  049%=      5-min Rain = 0
KCL2 111210Z 02012KT 12/02 A3002 RMK A01 T01190017  RH  049%=      5-min Rain = 0
KCL2 111211Z 03017G23KT 12/02 A3002 RMK A01 T01190018  RH  050%=      5-min Rain = 0
KCL2 111212Z 03017G24KT 12/02 A3002 RMK A01 T01190017  RH  050%=      5-min Rain = 0
KCL2 111213Z 03016G22KT 12/02 A3002 RMK A01 T01190017  RH  050%=      5-min Rain = 0
KCL2 111214Z 02019KT 12/02 A3002 RMK A01 T01190016  RH  049%=      5-min Rain = 0
KCL2 111215Z 03021KT 12/02 A3003 RMK A01 T01190016  RH  049%=      5-min Rain = 0
KCL2 111216Z 02017KT 12/02 A3003 RMK A01 T01190015  RH  049%=      5-min Rain = 0
KCL2 111217Z 03017G22KT 12/02 A3003 RMK A01 T01200016  RH  049%=      5-min Rain = 0
KCL2 111218Z 03019KT 12/02 A3003 RMK A01 T01200016  RH  049%=      5-min Rain = 0
KCL2 111219Z 03021G26KT 12/02 A3003 RMK A01 T01200015  RH  049%=      5-min Rain = 0
KCL2 111220Z 03021KT 12/01 A3002 RMK A01 T01200014  RH  048%=      5-min Rain = 0
KCL2 111221Z 03021KT 12/01 A3002 RMK A01 T01200014  RH  048%=      5-min Rain = 0
KCL2 111222Z 04018G25KT 12/01 A3002 RMK A01 T01200014  RH  048%=      5-min Rain = 0
KCL2 111223Z 03021KT 12/01 A3002 RMK A01 T01190014  RH  048%=      5-min Rain = 0
KCL2 111224Z 03019G25KT 12/01 A3002 RMK A01 T01190013  RH  048%=      5-min Rain = 0
KCL2 111225Z 03017KT 12/01 A3002 RMK A01 T01190013  RH  048%=      5-min Rain = 0
KCL2 111226Z 03018KT 12/01 A3002 RMK A01 T01190014  RH  049%=      5-min Rain = 0
KCL2 111227Z 03018KT 12/01 A3002 RMK A01 T01190014  RH  049%=      5-min Rain = 0
KCL2 111228Z 03018KT 12/01 A3002 RMK A01 T01190014  RH  049%=      5-min Rain = 0
KCL2 111229Z 03018G24KT 12/01 A3003 RMK A01 T01190013  RH  048%=      5-min Rain = 0
KCL2 111230Z 03019G25KT 12/01 A3003 RMK A01 T01190013  RH  048%=      5-min Rain = 0
KCL2 111231Z 03017KT 12/01 A3003 RMK A01 T01190012  RH  048%=      5-min Rain = 0
KCL2 111232Z 03020KT 12/01 A3003 RMK A01 T01190012  RH  048%=      5-min Rain = 0
KCL2 111233Z 03018KT 12/01 A3003 RMK A01 T01190012  RH  048%=      5-min Rain = 0
KCL2 111234Z 03020KT 12/01 A3003 RMK A01 T01190012  RH  048%=      5-min Rain = 0
KCL2 111235Z 03018KT 12/01 A3003 RMK A01 T01190011  RH  048%=      5-min Rain = 0
KCL2 111236Z 03017KT 12/01 A3003 RMK A01 T01190011  RH  048%=      5-min Rain = 0
KCL2 111237Z 03020KT 12/01 A3003 RMK A01 T01190011  RH  048%=      5-min Rain = 0
KCL2 111238Z 03017KT 12/01 A3003 RMK A01 T01190011  RH  047%=      5-min Rain = 0
KCL2 111239Z 03017KT 12/01 A3003 RMK A01 T01190011  RH  047%=      5-min Rain = 0
KCL2 111240Z 02019G24KT 12/01 A3003 RMK A01 T01190011  RH  047%=      5-min Rain = 0
KCL2 111241Z 03018KT 12/01 A3003 RMK A01 T01190011  RH  047%=      5-min Rain = 0
KCL2 111242Z 03015G22KT 12/01 A3003 RMK A01 T01190011  RH  047%=      5-min Rain = 0
KCL2 111243Z 03017G22KT 12/01 A3003 RMK A01 T01190011  RH  048%=      5-min Rain = 0
KCL2 111244Z 03017KT 12/01 A3004 RMK A01 T01190011  RH  047%=      5-min Rain = 0
KCL2 111245Z 03016KT 12/01 A3004 RMK A01 T01190011  RH  047%=      5-min Rain = 0
KCL2 111246Z 03018KT 12/01 A3004 RMK A01 T01190011  RH  047%=      5-min Rain = 0
KCL2 111247Z 03018KT 12/01 A3004 RMK A01 T01190010  RH  047%=      5-min Rain = 0
KCL2 111248Z 03017KT 12/01 A3004 RMK A01 T01190010  RH  047%=      5-min Rain = 0
KCL2 111249Z 03016G21KT 12/01 A3004 RMK A01 T01190010  RH  047%=      5-min Rain = 0
KCL2 111250Z 03018KT 12/01 A3004 RMK A01 T01190010  RH  047%=      5-min Rain = 0
KCL2 111251Z 03017KT 12/01 A3004 RMK A01 T01200010  RH  047%=      5-min Rain = 0
KCL2 111252Z 03016KT 12/01 A3005 RMK A01 T01200010  RH  047%=      5-min Rain = 0
KCL2 111253Z 03015KT 12/01 A3004 RMK A01 T01200010  RH  047%=      5-min Rain = 0
KCL2 111254Z 03015KT 12/01 A3004 RMK A01 T01200010  RH  047%=      5-min Rain = 0
KCL2 111255Z 03015KT 12/01 A3005 RMK A01 T01200010  RH  047%=      5-min Rain = 0
KCL2 111256Z 03019KT 12/01 A3005 RMK A01 T01200010  RH  047%=      5-min Rain = 0
KCL2 111257Z 03019KT 12/01 A3004 RMK A01 T01200010  RH  047%=      5-min Rain = 0
KCL2 111258Z 03016KT 12/01 A3004 RMK A01 T01200009  RH  046%=      5-min Rain = 0
KCL2 111259Z 03017G22KT 12/01 A3004 RMK A01 T01210010  RH  047%=      5-min Rain = 0
KCL2 111300Z 03016KT 12/01 A3004 RMK A01 T01200010  RH  047%=      5-min Rain = 0
KCL2 111301Z 03017KT 12/01 A3005 RMK A01 T01200010  RH  047%=      5-min Rain = 0
KCL2 111302Z 03018G24KT 12/01 A3005 RMK A01 T01200009  RH  047%=      5-min Rain = 0
KCL2 111303Z 02017KT 12/01 A3005 RMK A01 T01200008  RH  046%=      5-min Rain = 0
KCL2 111304Z 03016KT 12/01 A3005 RMK A01 T01200008  RH  046%=      5-min Rain = 0
KCL2 111305Z 03016KT 12/01 A3005 RMK A01 T01210008  RH  046%=      5-min Rain = 0
KCL2 111306Z 02015G20KT 12/01 A3005 RMK A01 T01200008  RH  046%=      5-min Rain = 0
KCL2 111307Z 03014G20KT 12/01 A3005 RMK A01 T01200008  RH  046%=      5-min Rain = 0
KCL2 111308Z 03020G25KT 12/01 A3005 RMK A01 T01200007  RH  046%=      5-min Rain = 0
KCL2 111309Z 03021G27KT 12/01 A3005 RMK A01 T01200005  RH  045%=      5-min Rain = 0
KCL2 111310Z 03025G30KT 12/00 A3005 RMK A01 T01210003  RH  044%=      5-min Rain = 0
KCL2 111311Z 03023G29KT 12/00 A3005 RMK A01 T01210003  RH  044%=      5-min Rain = 0
KCL2 111312Z 03021KT 12/00 A3005 RMK A01 T01220003  RH  044%=      5-min Rain = 0
KCL2 111313Z 02018KT 12/00 A3005 RMK A01 T01210003  RH  044%=      5-min Rain = 0
KCL2 111314Z 03019KT 12/00 A3005 RMK A01 T01220003  RH  044%=      5-min Rain = 0
KCL2 111315Z 03020G25KT 12/00 A3005 RMK A01 T01220003  RH  044%=      5-min Rain = 0
KCL2 111316Z 03020KT 12/00 A3005 RMK A01 T01220002  RH  044%=      5-min Rain = 0
KCL2 111317Z 03020KT 12/00 A3005 RMK A01 T01210001  RH  044%=      5-min Rain = 0
KCL2 111318Z 03016G21KT 12/00 A3006 RMK A01 T01210001  RH  044%=      5-min Rain = 0
KCL2 111319Z 03016G23KT 12/00 A3006 RMK A01 T01210002  RH  044%=      5-min Rain = 0
KCL2 111320Z 02015G20KT 12/00 A3006 RMK A01 T01220002  RH  044%=      5-min Rain = 0
KCL2 111321Z 03014KT 12/00 A3006 RMK A01 T01210002  RH  044%=      5-min Rain = 0
KCL2 111322Z 02013KT 12/00 A3006 RMK A01 T01210003  RH  044%=      5-min Rain = 0
KCL2 111323Z 02013G19KT 12/00 A3006 RMK A01 T01210003  RH  045%=      5-min Rain = 0
KCL2 111324Z 03016KT 12/00 A3006 RMK A01 T01210003  RH  044%=      5-min Rain = 0
KCL2 111325Z 02013KT 12/00 A3006 RMK A01 T01210002  RH  044%=      5-min Rain = 0
KCL2 111326Z 02017G22KT 12/00 A3007 RMK A01 T01200002  RH  044%=      5-min Rain = 0
KCL2 111327Z 02016KT 12/00 A3007 RMK A01 T01200001  RH  044%=      5-min Rain = 0
KCL2 111328Z 02014G19KT 12/00 A3007 RMK A01 T01200001  RH  044%=      5-min Rain = 0
KCL2 111329Z 03017G23KT 12/00 A3007 RMK A01 T01200001  RH  044%=      5-min Rain = 0
KCL2 111330Z 02019KT 12/00 A3007 RMK A01 T012100-0  RH  043%=      5-min Rain = 0
KCL2 111331Z 02017KT 12/00 A3007 RMK A01 T012100-0  RH  043%=      5-min Rain = 0
KCL2 111332Z 02016G22KT 12/M00 A3007 RMK A01 T01211001  RH  043%=      5-min Rain = 0
KCL2 111333Z 03018G25KT 12/M00 A3007 RMK A01 T01211001  RH  043%=      5-min Rain = 0
KCL2 111334Z 02019KT 12/M00 A3007 RMK A01 T01211001  RH  043%=      5-min Rain = 0
KCL2 111335Z 02018KT 12/M00 A3007 RMK A01 T01211001  RH  043%=      5-min Rain = 0
KCL2 111336Z 02017KT 12/M00 A3007 RMK A01 T01211001  RH  043%=      5-min Rain = 0
KCL2 111337Z 02017KT 12/M00 A3008 RMK A01 T01211002  RH  043%=      5-min Rain = 0
KCL2 111338Z 02017KT 12/M00 A3008 RMK A01 T01211002  RH  043%=      5-min Rain = 0
KCL2 111339Z 02018G24KT 12/M00 A3008 RMK A01 T01211002  RH  043%=      5-min Rain = 0
KCL2 111340Z 02013KT 12/M00 A3008 RMK A01 T01211001  RH  043%=      5-min Rain = 0
KCL2 111341Z 03017KT 12/M00 A3008 RMK A01 T01211001  RH  043%=      5-min Rain = 0
KCL2 111342Z 02019KT 12/M00 A3008 RMK A01 T01211002  RH  043%=      5-min Rain = 0
KCL2 111343Z 02016KT 12/M00 A3008 RMK A01 T01211003  RH  043%=      5-min Rain = 0
KCL2 111344Z 03016KT 12/M00 A3008 RMK A01 T01211002  RH  043%=      5-min Rain = 0
KCL2 111345Z 02017G22KT 12/M00 A3008 RMK A01 T01211002  RH  043%=      5-min Rain = 0
KCL2 111346Z 02015KT 12/M00 A3008 RMK A01 T01201002  RH  043%=      5-min Rain = 0
KCL2 111347Z 02014KT 12/M00 A3008 RMK A01 T01211001  RH  043%=      5-min Rain = 0
KCL2 111348Z 02018KT 12/M00 A3008 RMK A01 T01211002  RH  043%=      5-min Rain = 0
KCL2 111349Z 02018G23KT 12/M00 A3008 RMK A01 T01211002  RH  043%=      5-min Rain = 0
KCL2 111350Z 02017KT 12/M00 A3008 RMK A01 T01201003  RH  042%=      5-min Rain = 0
KCL2 111351Z 03015G20KT 12/M00 A3008 RMK A01 T01201002  RH  043%=      5-min Rain = 0
KCL2 111352Z 02016G21KT 12/M00 A3008 RMK A01 T01211002  RH  043%=      5-min Rain = 0
KCL2 111353Z 02018G23KT 12/M00 A3008 RMK A01 T01211003  RH  043%=      5-min Rain = 0
KCL2 111354Z 02017KT 12/M00 A3008 RMK A01 T01211003  RH  043%=      5-min Rain = 0
KCL2 111355Z 02016KT 12/M00 A3008 RMK A01 T01211004  RH  042%=      5-min Rain = 0
KCL2 111356Z 03016G23KT 12/M00 A3008 RMK A01 T01201003  RH  043%=      5-min Rain = 0
KCL2 111357Z 02015G21KT 12/M00 A3009 RMK A01 T01211002  RH  043%=      5-min Rain = 0
KCL2 111358Z 02016G22KT 12/M00 A3009 RMK A01 T01211002  RH  043%=      5-min Rain = 0
KCL2 111359Z 02017KT 12/M00 A3009 RMK A01 T01211002  RH  043%=      5-min Rain = 0
KCL2 111400Z 03014G20KT 12/M00 A3009 RMK A01 T01211003  RH  043%=      5-min Rain = 0
KCL2 111401Z 02019KT 12/M00 A3009 RMK A01 T01221002  RH  043%=      5-min Rain = 0
KCL2 111402Z 02022KT 12/M00 A3009 RMK A01 T01211004  RH  042%=      5-min Rain = 0
KCL2 111403Z 03018G23KT 12/M00 A3009 RMK A01 T01221004  RH  042%=      5-min Rain = 0
KCL2 111404Z 02017KT 12/M00 A3009 RMK A01 T01211004  RH  042%=      5-min Rain = 0
KCL2 111405Z 03020KT 12/M00 A3009 RMK A01 T01211004  RH  042%=      5-min Rain = 0
KCL2 111406Z 02019G25KT 12/M01 A3009 RMK A01 T01211005  RH  042%=      5-min Rain = 0
KCL2 111407Z 02014G19KT 12/M00 A3009 RMK A01 T01221004  RH  042%=      5-min Rain = 0
KCL2 111408Z 02014G19KT 12/M00 A3009 RMK A01 T01221003  RH  042%=      5-min Rain = 0
KCL2 111409Z 02017KT 12/M00 A3009 RMK A01 T01221003  RH  042%=      5-min Rain = 0
KCL2 111410Z 03020KT 12/M00 A3009 RMK A01 T01221004  RH  042%=      5-min Rain = 0
KCL2 111411Z 02017G22KT 12/M01 A3009 RMK A01 T01221005  RH  042%=      5-min Rain = 0
KCL2 111412Z 03016G21KT 12/M00 A301 RMK A01 T01221003  RH  042%=      5-min Rain = 0
KCL2 111413Z 03020KT 12/M00 A301 RMK A01 T01221004  RH  042%=      5-min Rain = 0
KCL2 111414Z 02014G19KT 12/M01 A301 RMK A01 T01221005  RH  042%=      5-min Rain = 0
KCL2 111415Z 02016KT 12/M00 A301 RMK A01 T01221003  RH  042%=      5-min Rain = 0
KCL2 111416Z 02017KT 12/M00 A301 RMK A01 T01221003  RH  042%=      5-min Rain = 0
KCL2 111417Z 02016KT 12/M00 A301 RMK A01 T01221004  RH  042%=      5-min Rain = 0
KCL2 111418Z 01015KT 12/M00 A301 RMK A01 T01221003  RH  042%=      5-min Rain = 0
KCL2 111419Z 02020G26KT 12/M00 A301 RMK A01 T01221004  RH  042%=      5-min Rain = 0
KCL2 111420Z 03020G25KT 12/M01 A301 RMK A01 T01221006  RH  041%=      5-min Rain = 0
KCL2 111421Z 02020KT 12/M01 A301 RMK A01 T01221005  RH  041%=      5-min Rain = 0
KCL2 111422Z 02014KT 12/M00 A301 RMK A01 T01221004  RH  042%=      5-min Rain = 0
KCL2 111423Z 03016KT 12/M00 A301 RMK A01 T01221003  RH  042%=      5-min Rain = 0
KCL2 111424Z 03021KT 12/M00 A3011 RMK A01 T01221004  RH  042%=      5-min Rain = 0
KCL2 111425Z 03016G21KT 12/M01 A3011 RMK A01 T01221005  RH  042%=      5-min Rain = 0
KCL2 111426Z 03017KT 12/M00 A3011 RMK A01 T01221003  RH  042%=      5-min Rain = 0
KCL2 111427Z 03017KT 12/M00 A3011 RMK A01 T01231003  RH  042%=      5-min Rain = 0
KCL2 111428Z 02017KT 12/M00 A3011 RMK A01 T01221003  RH  042%=      5-min Rain = 0
KCL2 111429Z 02015G22KT 12/M00 A3011 RMK A01 T01221003  RH  042%=      5-min Rain = 0
KCL2 111430Z 02017G22KT 12/M00 A3011 RMK A01 T01221002  RH  042%=      5-min Rain = 0
KCL2 111431Z 02017KT 12/M00 A3011 RMK A01 T01221003  RH  042%=      5-min Rain = 0
KCL2 111432Z 02019KT 12/M00 A3011 RMK A01 T01231002  RH  042%=      5-min Rain = 0
KCL2 111433Z 01016KT 12/M00 A3011 RMK A01 T01231002  RH  042%=      5-min Rain = 0
KCL2 111434Z 02016KT 12/M00 A3011 RMK A01 T01231001  RH  043%=      5-min Rain = 0
KCL2 111435Z 02015KT 12/00 A3011 RMK A01 T012300-0  RH  043%=      5-min Rain = 0
KCL2 111436Z 01017KT 12/00 A3011 RMK A01 T01230000  RH  043%=      5-min Rain = 0
KCL2 111437Z 01017KT 12/M00 A3011 RMK A01 T01221001  RH  043%=      5-min Rain = 0
KCL2 111438Z 02018KT 12/M00 A3011 RMK A01 T01221001  RH  043%=      5-min Rain = 0
KCL2 111439Z 02016KT 12/M00 A3011 RMK A01 T01211001  RH  043%=      5-min Rain = 0
KCL2 111440Z 02018G23KT 12/M00 A3012 RMK A01 T01211001  RH  043%=      5-min Rain = 0
KCL2 111441Z 02019KT 12/M00 A3012 RMK A01 T01201003  RH  043%=      5-min Rain = 0
KCL2 111442Z 01018G23KT 12/M00 A3012 RMK A01 T01191004  RH  043%=      5-min Rain = 0
KCL2 111443Z 02018KT 12/M00 A3012 RMK A01 T01191003  RH  043%=      5-min Rain = 0
KCL2 111444Z 02018G26KT 12/M00 A3012 RMK A01 T01191004  RH  043%=      5-min Rain = 0
KCL2 111445Z 01017G24KT 12/M01 A3012 RMK A01 T01181005  RH  043%=      5-min Rain = 0
KCL2 111446Z 02015KT 12/M00 A3012 RMK A01 T01181004  RH  043%=      5-min Rain = 0
KCL2 111447Z 01017KT 12/M01 A3012 RMK A01 T01181005  RH  043%=      5-min Rain = 0
KCL2 111448Z 01020G25KT 12/M01 A3012 RMK A01 T01181006  RH  042%=      5-min Rain = 0
KCL2 111449Z 01020G27KT 12/M01 A3013 RMK A01 T01181007  RH  042%=      5-min Rain = 0
KCL2 111450Z 02020KT 12/M01 A3013 RMK A01 T01171007  RH  042%=      5-min Rain = 0
KCL2 111451Z 02019KT 12/M01 A3013 RMK A01 T01171007  RH  042%=      5-min Rain = 0
KCL2 111452Z 01019G25KT 12/M01 A3013 RMK A01 T01171007  RH  042%=      5-min Rain = 0
KCL2 111453Z 03022KT 12/M01 A3013 RMK A01 T01171008  RH  042%=      5-min Rain = 0
KCL2 111454Z 02018KT 12/M01 A3013 RMK A01 T01171009  RH  042%=      5-min Rain = 0
KCL2 111455Z 03020KT 12/M01 A3013 RMK A01 T01171009  RH  042%=      5-min Rain = 0
KCL2 111456Z 03018KT 12/M01 A3013 RMK A01 T01171010  RH  041%=      5-min Rain = 0
KCL2 111457Z 03020KT 12/M01 A3013 RMK A01 T01171010  RH  041%=      5-min Rain = 0
KCL2 111458Z 03017KT 12/M01 A3013 RMK A01 T01171010  RH  041%=      5-min Rain = 0
KCL2 111459Z 03022G27KT 12/M01 A3013 RMK A01 T01181011  RH  041%=      5-min Rain = 0
KCL2 111500Z 03019KT 12/M01 A3013 RMK A01 T01181011  RH  041%=      5-min Rain = 0
KCL2 111501Z 03020KT 12/M01 A3013 RMK A01 T01171011  RH  041%=      5-min Rain = 0
KCL2 111502Z 03018G23KT 12/M01 A3013 RMK A01 T01171012  RH  041%=      5-min Rain = 0
KCL2 111503Z 03019G25KT 12/M01 A3013 RMK A01 T01171013  RH  040%=      5-min Rain = 0
KCL2 111504Z 03020G25KT 12/M01 A3014 RMK A01 T01181012  RH  041%=      5-min Rain = 0
KCL2 111505Z 03019KT 12/M01 A3014 RMK A01 T01181012  RH  040%=      5-min Rain = 0
KCL2 111506Z 03015KT 12/M01 A3014 RMK A01 T01181011  RH  041%=      5-min Rain = 0
KCL2 111507Z 03013G20KT 12/M01 A3014 RMK A01 T01191009  RH  041%=      5-min Rain = 0
KCL2 111508Z 02015G22KT 12/M01 A3014 RMK A01 T01201007  RH  041%=      5-min Rain = 0
KCL2 111509Z 02019KT 12/M01 A3014 RMK A01 T01211007  RH  041%=      5-min Rain = 0
KCL2 111510Z 02017KT 12/M01 A3015 RMK A01 T01201007  RH  041%=      5-min Rain = 0
KCL2 111511Z 02018KT 12/M01 A3015 RMK A01 T01201007  RH  041%=      5-min Rain = 0
KCL2 111512Z 02019KT 12/M01 A3015 RMK A01 T01201008  RH  041%=      5-min Rain = 0
KCL2 111513Z 02018KT 12/M01 A3015 RMK A01 T01201008  RH  041%=      5-min Rain = 0
KCL2 111514Z 03017KT 12/M01 A3015 RMK A01 T01201008  RH  041%=      5-min Rain = 0
KCL2 111515Z 02016KT 12/M01 A3015 RMK A01 T01201007  RH  042%=      5-min Rain = 0
KCL2 111516Z 01015KT 12/M00 A3015 RMK A01 T01211004  RH  042%=      5-min Rain = 0
KCL2 111517Z 01014KT 12/M00 A3015 RMK A01 T01221002  RH  042%=      5-min Rain = 0
KCL2 111518Z 02016G22KT 12/M00 A3015 RMK A01 T01221002  RH  043%=      5-min Rain = 0
KCL2 111519Z 01019G27KT 12/M00 A3015 RMK A01 T01221003  RH  042%=      5-min Rain = 0
KCL2 111520Z 01021G26KT 12/M00 A3016 RMK A01 T01211003  RH  042%=      5-min Rain = 0
KCL2 111521Z 01014KT 12/M00 A3016 RMK A01 T01211002  RH  043%=      5-min Rain = 0
KCL2 111522Z 01016G21KT 12/00 A3016 RMK A01 T012300-0  RH  043%=      5-min Rain = 0
KCL2 111523Z 01020G25KT 12/M00 A3016 RMK A01 T01241002  RH  042%=      5-min Rain = 0
KCL2 111524Z 02021G26KT 12/M00 A3016 RMK A01 T01241003  RH  042%=      5-min Rain = 0
KCL2 111525Z 02015G21KT 12/M00 A3016 RMK A01 T01231002  RH  042%=      5-min Rain = 0
KCL2 111526Z 01018G24KT 12/M00 A3016 RMK A01 T01231002  RH  042%=      5-min Rain = 0
KCL2 111527Z 02015G21KT 12/M00 A3016 RMK A01 T01221003  RH  042%=      5-min Rain = 0
KCL2 111528Z 02018KT 12/M00 A3016 RMK A01 T01221002  RH  042%=      5-min Rain = 0
KCL2 111529Z 02017G23KT 12/M00 A3016 RMK A01 T01221002  RH  042%=      5-min Rain = 0
KCL2 111530Z 02019KT 12/M00 A3017 RMK A01 T01211003  RH  042%=      5-min Rain = 0
KCL2 111531Z 01021KT 12/M00 A3017 RMK A01 T01201003  RH  043%=      5-min Rain = 0
KCL2 111532Z 01021KT 12/M01 A3017 RMK A01 T01181005  RH  043%=      5-min Rain = 0
KCL2 111533Z 01019KT 12/M00 A3017 RMK A01 T01171004  RH  043%=      5-min Rain = 0
KCL2 111534Z 02018G23KT 12/M00 A3017 RMK A01 T01171003  RH  043%=      5-min Rain = 0
KCL2 111535Z 02016G21KT 12/M00 A3017 RMK A01 T01181003  RH  043%=      5-min Rain = 0
KCL2 111536Z 01016KT 12/M00 A3017 RMK A01 T01181002  RH  043%=      5-min Rain = 0
KCL2 111537Z 02017G23KT 12/M00 A3017 RMK A01 T01191002  RH  044%=      5-min Rain = 0
KCL2 111538Z 02015KT 12/M00 A3017 RMK A01 T01191002  RH  043%=      5-min Rain = 0
KCL2 111539Z 01019G24KT 12/M00 A3017 RMK A01 T01191002  RH  043%=      5-min Rain = 0
KCL2 111540Z 02017KT 12/M00 A3017 RMK A01 T01201002  RH  043%=      5-min Rain = 0
KCL2 111541Z 02019G25KT 12/M00 A3017 RMK A01 T01201002  RH  043%=      5-min Rain = 0
KCL2 111542Z 02017KT 12/M00 A3017 RMK A01 T01211001  RH  043%=      5-min Rain = 0
KCL2 111543Z 01015KT 12/M00 A3017 RMK A01 T01211002  RH  043%=      5-min Rain = 0
KCL2 111544Z 02019KT 12/M00 A3018 RMK A01 T01201001  RH  043%=      5-min Rain = 0
KCL2 111545Z 02017G23KT 12/M00 A3018 RMK A01 T01201002  RH  043%=      5-min Rain = 0
KCL2 111546Z 01015KT 12/M00 A3018 RMK A01 T01191001  RH  043%=      5-min Rain = 0
KCL2 111547Z 02015KT 12/M00 A3018 RMK A01 T01191001  RH  044%=      5-min Rain = 0
KCL2 111548Z 02016G22KT 12/00 A3018 RMK A01 T011900-0  RH  044%=      5-min Rain = 0
KCL2 111549Z 02014G20KT 12/M00 A3018 RMK A01 T01191001  RH  043%=      5-min Rain = 0
KCL2 111550Z 03020KT 12/M00 A3018 RMK A01 T01201002  RH  043%=      5-min Rain = 0
KCL2 111551Z 03018KT 12/M00 A3018 RMK A01 T01191004  RH  042%=      5-min Rain = 0
KCL2 111552Z 02017G24KT 12/M00 A3018 RMK A01 T01181004  RH  043%=      5-min Rain = 0
KCL2 111553Z 01019KT 12/M00 A3019 RMK A01 T01181002  RH  043%=      5-min Rain = 0
KCL2 111554Z 02018KT 12/M00 A3019 RMK A01 T01171002  RH  044%=      5-min Rain = 0
KCL2 111555Z 00014KT 12/00 A3019 RMK A01 T011700-0  RH  044%=      5-min Rain = 0
KCL2 111556Z 00015G22KT 12/00 A3019 RMK A01 T01180001  RH  044%=      5-min Rain = 0
KCL2 111557Z 01020KT 12/00 A3019 RMK A01 T011900-0  RH  044%=      5-min Rain = 0
KCL2 111558Z 01017G24KT 12/00 A3019 RMK A01 T01190000  RH  044%=      5-min Rain = 0
KCL2 111559Z 01017G24KT 12/00 A3019 RMK A01 T011900-0  RH  044%=      5-min Rain = 0
KCL2 111600Z 02014G21KT 12/00 A3019 RMK A01 T01190001  RH  044%=      5-min Rain = 0
KCL2 111601Z 01017G26KT 12/00 A3019 RMK A01 T01190002  RH  044%=      5-min Rain = 0
KCL2 111602Z 01017G23KT 12/M00 A3019 RMK A01 T01181001  RH  044%=      5-min Rain = 0
KCL2 111603Z 01019KT 12/M00 A3019 RMK A01 T01171001  RH  044%=      5-min Rain = 0
KCL2 111604Z 01018G24KT 12/M00 A3019 RMK A01 T01161001  RH  044%=      5-min Rain = 0
KCL2 111605Z 01017G24KT 12/M00 A3019 RMK A01 T01161001  RH  045%=      5-min Rain = 0
KCL2 111606Z 01018G25KT 12/M00 A3019 RMK A01 T01161002  RH  044%=      5-min Rain = 0
KCL2 111607Z 01017G22KT 12/M00 A3019 RMK A01 T01161001  RH  044%=      5-min Rain = 0
KCL2 111608Z 01018KT 12/M00 A3019 RMK A01 T01161001  RH  044%=      5-min Rain = 0
KCL2 111609Z 01017KT 12/00 A3019 RMK A01 T01170001  RH  045%=      5-min Rain = 0
KCL2 111610Z 01018G24KT 12/00 A3019 RMK A01 T011700-0  RH  044%=      5-min Rain = 0
KCL2 111611Z 02016KT 12/00 A3019 RMK A01 T011700-0  RH  044%=      5-min Rain = 0
KCL2 111612Z 02013G18KT 12/00 A3019 RMK A01 T01180002  RH  045%=      5-min Rain = 0
KCL2 111613Z 02018KT 12/00 A3019 RMK A01 T01210003  RH  044%=      5-min Rain = 0
KCL2 111614Z 01016G21KT 12/00 A3019 RMK A01 T01210001  RH  044%=      5-min Rain = 0
KCL2 111615Z 01015G20KT 12/00 A3019 RMK A01 T01200001  RH  044%=      5-min Rain = 0
KCL2 111616Z 01017G24KT 12/00 A3019 RMK A01 T01200002  RH  044%=      5-min Rain = 0
KCL2 111617Z 01019G24KT 12/00 A3019 RMK A01 T01190001  RH  044%=      5-min Rain = 0
KCL2 111618Z 01021KT 12/M00 A3019 RMK A01 T01181001  RH  044%=      5-min Rain = 0
KCL2 111619Z 02016G21KT 12/M00 A3019 RMK A01 T01171002  RH  044%=      5-min Rain = 0
KCL2 111620Z 02021KT 12/M00 A3019 RMK A01 T01161001  RH  044%=      5-min Rain = 0
KCL2 111621Z 02020G26KT 12/M00 A3019 RMK A01 T01161001  RH  044%=      5-min Rain = 0
KCL2 111622Z 02021KT 12/M00 A3019 RMK A01 T01151002  RH  044%=      5-min Rain = 0
KCL2 111623Z 03024KT 11/M00 A3019 RMK A01 T01141002  RH  045%=      5-min Rain = 0
KCL2 111624Z 02019G24KT 11/M00 A3019 RMK A01 T01141002  RH  045%=      5-min Rain = 0
KCL2 111625Z 02015KT 11/00 A3019 RMK A01 T011400-0  RH  045%=      5-min Rain = 0
KCL2 111626Z 02015KT 12/00 A3019 RMK A01 T01170003  RH  046%=      5-min Rain = 0
KCL2 111627Z 02016G22KT 12/00 A3019 RMK A01 T01170003  RH  045%=      5-min Rain = 0
KCL2 111628Z 03019KT 12/00 A3019 RMK A01 T01180003  RH  045%=      5-min Rain = 0
KCL2 111629Z 03016KT 12/00 A3019 RMK A01 T01180003  RH  045%=      5-min Rain = 0
KCL2 111630Z 02018KT 12/00 A3019 RMK A01 T01170004  RH  046%=      5-min Rain = 0
KCL2 111631Z 03017G22KT 12/00 A3019 RMK A01 T01170003  RH  046%=      5-min Rain = 0
KCL2 111632Z 02016KT 12/00 A3019 RMK A01 T01170003  RH  045%=      5-min Rain = 0
KCL2 111633Z 02018G23KT 12/00 A3019 RMK A01 T01180004  RH  046%=      5-min Rain = 0
KCL2 111634Z 02021G27KT 12/00 A302 RMK A01 T01190001  RH  044%=      5-min Rain = 0
KCL2 111635Z 02021KT 12/00 A302 RMK A01 T01190001  RH  044%=      5-min Rain = 0
KCL2 111636Z 03021KT 12/00 A302 RMK A01 T01180001  RH  044%=      5-min Rain = 0
KCL2 111637Z 03019KT 12/00 A302 RMK A01 T01170001  RH  045%=      5-min Rain = 0
KCL2 111638Z 03020KT 12/00 A302 RMK A01 T01170001  RH  045%=      5-min Rain = 0
KCL2 111639Z 02019KT 12/00 A302 RMK A01 T01160001  RH  045%=      5-min Rain = 0
KCL2 111640Z 02017G22KT 12/00 A302 RMK A01 T01170003  RH  046%=      5-min Rain = 0
KCL2 111641Z 02015G22KT 12/00 A302 RMK A01 T01180003  RH  045%=      5-min Rain = 0
KCL2 111642Z 02012G21KT 12/00 A302 RMK A01 T01180002  RH  045%=      5-min Rain = 0
KCL2 111643Z 02022G27KT 12/00 A302 RMK A01 T01190001  RH  044%=      5-min Rain = 0
KCL2 111644Z 02019G26KT 12/M00 A302 RMK A01 T01191004  RH  043%=      5-min Rain = 0
KCL2 111645Z 02022KT 12/M00 A302 RMK A01 T01171004  RH  043%=      5-min Rain = 0
KCL2 111646Z 02022G28KT 12/M00 A302 RMK A01 T01151004  RH  044%=      5-min Rain = 0
KCL2 111647Z 01021KT 12/M00 A302 RMK A01 T01151003  RH  044%=      5-min Rain = 0
KCL2 111648Z 03022KT 11/M00 A302 RMK A01 T01141003  RH  045%=      5-min Rain = 0
KCL2 111649Z 03022KT 11/M00 A302 RMK A01 T01131004  RH  044%=      5-min Rain = 0
KCL2 111650Z 02023G29KT 11/M01 A302 RMK A01 T01141005  RH  044%=      5-min Rain = 0
KCL2 111651Z 02018KT 11/M01 A302 RMK A01 T01141005  RH  044%=      5-min Rain = 0
KCL2 111652Z 02019G24KT 11/M00 A302 RMK A01 T01141003  RH  044%=      5-min Rain = 0
KCL2 111653Z 02020G25KT 11/M00 A302 RMK A01 T01141003  RH  044%=      5-min Rain = 0
KCL2 111654Z 02018G24KT 12/M00 A302 RMK A01 T01151002  RH  045%=      5-min Rain = 0
KCL2 111655Z 01021KT 12/M00 A302 RMK A01 T01151001  RH  045%=      5-min Rain = 0
KCL2 111656Z 01016G21KT 12/M00 A302 RMK A01 T01151001  RH  045%=      5-min Rain = 0
KCL2 111657Z 01016G21KT 12/00 A302 RMK A01 T011500-0  RH  045%=      5-min Rain = 0
KCL2 111658Z 01015KT 12/00 A302 RMK A01 T01160002  RH  046%=      5-min Rain = 0
KCL2 111659Z 01017G25KT 12/00 A302 RMK A01 T01160003  RH  046%=      5-min Rain = 0
KCL2 111700Z 01019KT 12/00 A302 RMK A01 T01160003  RH  045%=      5-min Rain = 0
KCL2 111701Z 01018G24KT 12/00 A302 RMK A01 T01150001  RH  045%=      5-min Rain = 0
KCL2 111702Z 01018G23KT 12/00 A302 RMK A01 T01150003  RH  046%=      5-min Rain = 0
KCL2 111703Z 01021G26KT 12/00 A302 RMK A01 T01150003  RH  046%=      5-min Rain = 0
KCL2 111704Z 01018G23KT 12/00 A302 RMK A01 T01150003  RH  046%=      5-min Rain = 0
KCL2 111705Z 00018KT 12/00 A302 RMK A01 T01150004  RH  046%=      5-min Rain = 0
KCL2 111706Z 00016KT 12/01 A302 RMK A01 T01160005  RH  046%=      5-min Rain = 0
KCL2 111707Z 01014G20KT 12/01 A302 RMK A01 T01160006  RH  047%=      5-min Rain = 0
KCL2 111708Z 01018KT 12/01 A302 RMK A01 T01170006  RH  046%=      5-min Rain = 0
KCL2 111709Z 02015KT 12/01 A302 RMK A01 T01170005  RH  046%=      5-min Rain = 0
KCL2 111710Z 01014G19KT 12/01 A3021 RMK A01 T01170006  RH  046%=      5-min Rain = 0
KCL2 111711Z 01014KT 12/01 A3021 RMK A01 T01180006  RH  046%=      5-min Rain = 0
KCL2 111712Z 01019G24KT 12/00 A3021 RMK A01 T01200003  RH  044%=      5-min Rain = 0
KCL2 111713Z 02016KT 12/00 A3021 RMK A01 T01200001  RH  044%=      5-min Rain = 0
KCL2 111714Z 01013KT 12/00 A3021 RMK A01 T01210002  RH  044%=      5-min Rain = 0
KCL2 111715Z 01020KT 12/00 A3021 RMK A01 T01230000  RH  043%=      5-min Rain = 0
KCL2 111716Z 01016KT 12/M00 A3021 RMK A01 T01221003  RH  042%=      5-min Rain = 0
KCL2 111717Z 01016KT 12/M00 A3021 RMK A01 T01211004  RH  042%=      5-min Rain = 0
KCL2 111718Z 02017KT 12/M00 A3021 RMK A01 T01221002  RH  042%=      5-min Rain = 0
KCL2 111719Z 01017KT 12/M00 A3021 RMK A01 T01221001  RH  043%=      5-min Rain = 0
KCL2 111720Z 01013G19KT 12/00 A3021 RMK A01 T012100-0  RH  043%=      5-min Rain = 0
KCL2 111721Z 02012KT 12/00 A3021 RMK A01 T01210001  RH  044%=      5-min Rain = 0
KCL2 111722Z 02018G23KT 12/00 A3021 RMK A01 T01220002  RH  044%=      5-min Rain = 0
KCL2 111723Z 03017KT 12/00 A3021 RMK A01 T01220001  RH  043%=      5-min Rain = 0
KCL2 111724Z 03014G19KT 12/M00 A3021 RMK A01 T01221001  RH  042%=      5-min Rain = 0
KCL2 111725Z 03019G24KT 12/M00 A3021 RMK A01 T01221003  RH  042%=      5-min Rain = 0
KCL2 111726Z 02018G25KT 12/M01 A3021 RMK A01 T01211007  RH  041%=      5-min Rain = 0
KCL2 111727Z 02019G24KT 12/M01 A3021 RMK A01 T01211005  RH  042%=      5-min Rain = 0
KCL2 111728Z 02015G21KT 12/M01 A3021 RMK A01 T01211005  RH  042%=      5-min Rain = 0
KCL2 111729Z 02018KT 12/M01 A3021 RMK A01 T01211005  RH  042%=      5-min Rain = 0
KCL2 111730Z 02017KT 12/M00 A3021 RMK A01 T01211004  RH  042%=      5-min Rain = 0
KCL2 111731Z 02014KT 12/M00 A3021 RMK A01 T01211003  RH  042%=      5-min Rain = 0
KCL2 111732Z 01015KT 12/M00 A3021 RMK A01 T01211003  RH  042%=      5-min Rain = 0
KCL2 111733Z 00013KT 12/00 A3021 RMK A01 T01220001  RH  043%=      5-min Rain = 0
KCL2 111734Z 01014G21KT 12/00 A3021 RMK A01 T01220003  RH  044%=      5-min Rain = 0
KCL2 111735Z 02016KT 12/00 A3021 RMK A01 T01230003  RH  044%=      5-min Rain = 0
KCL2 111736Z 01018KT 12/00 A3021 RMK A01 T01230003  RH  044%=      5-min Rain = 0
KCL2 111737Z 02015KT 12/00 A3021 RMK A01 T01210001  RH  044%=      5-min Rain = 0
KCL2 111738Z 02016KT 12/00 A3021 RMK A01 T01210003  RH  044%=      5-min Rain = 0
KCL2 111739Z 02013G18KT 12/01 A3021 RMK A01 T01220005  RH  045%=      5-min Rain = 0
KCL2 111740Z 00015KT 12/01 A3021 RMK A01 T01240008  RH  045%=      5-min Rain = 0
KCL2 111741Z 01017G22KT 13/00 A3022 RMK A01 T01250001  RH  043%=      5-min Rain = 0
KCL2 111742Z 00020KT 13/M01 A3022 RMK A01 T01251006  RH  040%=      5-min Rain = 0
KCL2 111743Z 01019G26KT 12/M01 A3022 RMK A01 T01221011  RH  040%=      5-min Rain = 0
KCL2 111744Z 01018G24KT 12/M01 A3022 RMK A01 T01201012  RH  040%=      5-min Rain = 0
KCL2 111745Z 01020G25KT 12/M01 A3022 RMK A01 T01201012  RH  040%=      5-min Rain = 0
KCL2 111746Z 01018G24KT 12/M01 A3022 RMK A01 T01201013  RH  040%=      5-min Rain = 0
KCL2 111747Z 01019KT 12/M01 A3022 RMK A01 T01191014  RH  040%=      5-min Rain = 0
KCL2 111748Z 00019G24KT 12/M02 A3022 RMK A01 T01191015  RH  039%=      5-min Rain = 0
KCL2 111749Z 01018KT 12/M02 A3022 RMK A01 T01191016  RH  039%=      5-min Rain = 0
KCL2 111750Z 01020KT 12/M02 A3022 RMK A01 T01191015  RH  039%=      5-min Rain = 0
KCL2 111751Z 01018G23KT 12/M01 A3022 RMK A01 T01191014  RH  040%=      5-min Rain = 0
KCL2 111752Z 01015KT 12/M01 A3022 RMK A01 T01201012  RH  040%=      5-min Rain = 0
KCL2 111753Z 01015KT 12/M01 A3021 RMK A01 T01231010  RH  040%=      5-min Rain = 0
KCL2 111754Z 36014G21KT 12/M01 A3022 RMK A01 T01241010  RH  040%=      5-min Rain = 0
KCL2 111755Z 00020KT 13/M01 A3022 RMK A01 T01251011  RH  039%=      5-min Rain = 0
KCL2 111756Z 00017G22KT 12/M01 A3022 RMK A01 T01241013  RH  039%=      5-min Rain = 0
KCL2 111757Z 01016G21KT 12/M01 A3022 RMK A01 T01231013  RH  039%=      5-min Rain = 0
KCL2 111758Z 01014KT 12/M01 A3022 RMK A01 T01211013  RH  039%=      5-min Rain = 0
KCL2 111759Z 01015KT 12/M01 A3022 RMK A01 T01201012  RH  040%=      5-min Rain = 0
KCL2 111800Z 02015G20KT 12/M01 A3022 RMK A01 T01201012  RH  040%=      5-min Rain = 0
KCL2 111801Z 02015G20KT 12/M01 A3022 RMK A01 T01211011  RH  040%=      5-min Rain = 0
KCL2 111802Z 01015KT 12/M01 A3022 RMK A01 T01211013  RH  039%=      5-min Rain = 0
KCL2 111803Z 01017G23KT 12/M01 A3022 RMK A01 T01211013  RH  039%=      5-min Rain = 0
KCL2 111804Z 01015G20KT 12/M02 A3022 RMK A01 T01211015  RH  039%=      5-min Rain = 0
KCL2 111805Z 01014G19KT 12/M02 A3022 RMK A01 T01211016  RH  039%=      5-min Rain = 0
KCL2 111806Z 35018KT 12/M02 A3022 RMK A01 T01211018  RH  038%=      5-min Rain = 0
KCL2 111807Z 36020KT 12/M02 A3022 RMK A01 T01211019  RH  038%=      5-min Rain = 0
KCL2 111808Z 36018G23KT 12/M02 A3022 RMK A01 T01201020  RH  038%=      5-min Rain = 0
KCL2 111809Z 35016G22KT 12/M02 A3022 RMK A01 T01201021  RH  038%=      5-min Rain = 0
KCL2 111810Z 36015KT 12/M02 A3022 RMK A01 T01201020  RH  038%=      5-min Rain = 0
KCL2 111811Z 36017KT 12/M02 A3022 RMK A01 T01211020  RH  037%=      5-min Rain = 0
KCL2 111812Z 01016G23KT 12/M02 A3022 RMK A01 T01211020  RH  037%=      5-min Rain = 0
KCL2 111813Z 01018KT 12/M02 A3022 RMK A01 T01201021  RH  037%=      5-min Rain = 0
KCL2 111814Z 01013KT 12/M02 A3022 RMK A01 T01201020  RH  038%=      5-min Rain = 0
KCL2 111815Z 02014G20KT 12/M02 A3022 RMK A01 T01221018  RH  038%=      5-min Rain = 0
KCL2 111816Z 01015KT 12/M02 A3022 RMK A01 T01241018  RH  037%=      5-min Rain = 0
KCL2 111817Z 36016G21KT 12/M02 A3022 RMK A01 T01241020  RH  037%=      5-min Rain = 0
KCL2 111818Z 35017KT 12/M02 A3022 RMK A01 T01231019  RH  037%=      5-min Rain = 0
KCL2 111819Z 35016G21KT 12/M02 A3022 RMK A01 T01241021  RH  037%=      5-min Rain = 0
KCL2 111820Z 36012KT 12/M02 A3022 RMK A01 T01231020  RH  037%=      5-min Rain = 0
KCL2 111821Z 01018KT 12/M02 A3022 RMK A01 T01241020  RH  037%=      5-min Rain = 0
KCL2 111822Z 01017KT 12/M03 A3022 RMK A01 T01241025  RH  035%=      5-min Rain = 0
KCL2 111823Z 01021KT 12/M03 A3022 RMK A01 T01231027  RH  035%=      5-min Rain = 0
KCL2 111824Z 00019KT 12/M03 A3022 RMK A01 T01201029  RH  035%=      5-min Rain = 0
KCL2 111825Z 36016KT 12/M03 A3022 RMK A01 T01191029  RH  036%=      5-min Rain = 0
KCL2 111826Z 00016KT 12/M03 A3022 RMK A01 T01191027  RH  036%=      5-min Rain = 0
KCL2 111827Z 01017KT 12/M02 A3022 RMK A01 T01201023  RH  037%=      5-min Rain = 0
KCL2 111828Z 00015G21KT 12/M02 A3022 RMK A01 T01201023  RH  037%=      5-min Rain = 0
KCL2 111829Z 00012KT 12/M02 A3022 RMK A01 T01211019  RH  038%=      5-min Rain = 0
KCL2 111830Z 01014KT 12/M02 A3022 RMK A01 T01221019  RH  037%=      5-min Rain = 0
KCL2 111831Z 02014KT 12/M02 A3022 RMK A01 T01221018  RH  038%=      5-min Rain = 0
KCL2 111832Z 36013KT 12/M02 A3022 RMK A01 T01231015  RH  038%=      5-min Rain = 0
KCL2 111833Z 35015KT 13/M02 A3021 RMK A01 T01251020  RH  037%=      5-min Rain = 0
KCL2 111834Z 34018G23KT 12/M02 A3021 RMK A01 T01241022  RH  036%=      5-min Rain = 0
KCL2 111835Z 34020KT 12/M03 A3021 RMK A01 T01211027  RH  035%=      5-min Rain = 0
KCL2 111836Z 34017KT 12/M03 A3022 RMK A01 T01191027  RH  036%=      5-min Rain = 0
KCL2 111837Z 34016G21KT 12/M03 A3022 RMK A01 T01181026  RH  036%=      5-min Rain = 0
KCL2 111838Z 35019KT 12/M03 A3022 RMK A01 T01181026  RH  036%=      5-min Rain = 0
KCL2 111839Z 35017KT 12/M03 A3022 RMK A01 T01181026  RH  037%=      5-min Rain = 0
KCL2 111840Z 35015KT 12/M03 A3022 RMK A01 T01181028  RH  036%=      5-min Rain = 0
KCL2 111841Z 35016KT 12/M03 A3022 RMK A01 T01181027  RH  036%=      5-min Rain = 0
KCL2 111842Z 01013G18KT 12/M03 A3022 RMK A01 T01181026  RH  037%=      5-min Rain = 0
KCL2 111843Z 36014KT 12/M03 A3022 RMK A01 T01181025  RH  037%=      5-min Rain = 0
KCL2 111844Z 00014G19KT 12/M03 A3022 RMK A01 T01191028  RH  036%=      5-min Rain = 0
KCL2 111845Z 35014KT 12/M03 A3022 RMK A01 T01181027  RH  036%=      5-min Rain = 0
KCL2 111846Z 35015KT 12/M03 A3022 RMK A01 T01191028  RH  036%=      5-min Rain = 0
KCL2 111847Z 36017KT 12/M03 A3022 RMK A01 T01201028  RH  036%=      5-min Rain = 0
KCL2 111848Z 00017KT 12/M03 A3022 RMK A01 T01201029  RH  035%=      5-min Rain = 0
KCL2 111849Z 01014KT 12/M03 A3022 RMK A01 T01191031  RH  035%=      5-min Rain = 0
KCL2 111850Z 00015KT 12/M03 A3022 RMK A01 T01181032  RH  035%=      5-min Rain = 0
KCL2 111851Z 35015KT 12/M03 A3022 RMK A01 T01191031  RH  035%=      5-min Rain = 0
KCL2 111852Z 35017KT 12/M03 A3022 RMK A01 T01201034  RH  034%=      5-min Rain = 0
KCL2 111853Z 34016KT 12/M04 A3022 RMK A01 T01201036  RH  033%=      5-min Rain = 0
KCL2 111854Z 35015KT 12/M03 A3022 RMK A01 T01211034  RH  034%=      5-min Rain = 0
KCL2 111855Z 36016KT 12/M04 A3022 RMK A01 T01221036  RH  033%=      5-min Rain = 0
KCL2 111856Z 00016KT 12/M04 A3022 RMK A01 T01211039  RH  033%=      5-min Rain = 0
KCL2 111857Z 01016KT 12/M04 A3022 RMK A01 T01201040  RH  032%=      5-min Rain = 0
KCL2 111858Z 35017G22KT 12/M04 A3022 RMK A01 T01191040  RH  033%=      5-min Rain = 0
KCL2 111859Z 34018KT 12/M04 A3022 RMK A01 T01201041  RH  032%=      5-min Rain = 0
KCL2 111900Z 00018G25KT 12/M04 A3023 RMK A01 T01211041  RH  032%=      5-min Rain = 0
KCL2 111901Z 01016G21KT 12/M04 A3023 RMK A01 T01211041  RH  032%=      5-min Rain = 0
KCL2 111902Z 00012KT 12/M04 A3022 RMK A01 T01201044  RH  031%=      5-min Rain = 0
KCL2 111903Z 36012KT 12/M05 A3022 RMK A01 T01201046  RH  031%=      5-min Rain = 0
KCL2 111904Z 35015KT 12/M05 A3022 RMK A01 T01211045  RH  031%=      5-min Rain = 0
KCL2 111905Z 35020G26KT 12/M05 A3022 RMK A01 T01211050  RH  030%=      5-min Rain = 0
KCL2 111906Z 36017KT 12/M05 A3022 RMK A01 T01201050  RH  030%=      5-min Rain = 0
KCL2 111907Z 01016KT 12/M05 A3022 RMK A01 T01211047  RH  030%=      5-min Rain = 0
KCL2 111908Z 00017KT 12/M05 A3022 RMK A01 T01211051  RH  030%=      5-min Rain = 0
KCL2 111909Z 35014KT 12/M05 A3022 RMK A01 T01191052  RH  030%=      5-min Rain = 0
KCL2 111910Z 36015G21KT 12/M05 A3022 RMK A01 T01201052  RH  030%=      5-min Rain = 0
KCL2 111911Z 00017KT 12/M06 A3022 RMK A01 T01201056  RH  029%=      5-min Rain = 0
KCL2 111912Z 00018KT 12/M06 A3022 RMK A01 T01181059  RH  028%=      5-min Rain = 0
KCL2 111913Z 36017G22KT 12/M06 A3022 RMK A01 T01171058  RH  029%=      5-min Rain = 0
KCL2 111914Z 00019KT 12/M06 A3022 RMK A01 T01171058  RH  029%=      5-min Rain = 0
KCL2 111915Z 36015KT 12/M06 A3022 RMK A01 T01161057  RH  029%=      5-min Rain = 0
KCL2 111916Z 00012KT 12/M05 A3022 RMK A01 T01171054  RH  030%=      5-min Rain = 0
KCL2 111917Z 00012KT 12/M05 A3022 RMK A01 T01181052  RH  030%=      5-min Rain = 0
KCL2 111918Z 36012KT 12/M05 A3021 RMK A01 T01201052  RH  030%=      5-min Rain = 0
KCL2 111919Z 36012KT 12/M05 A3021 RMK A01 T01201052  RH  030%=      5-min Rain = 0
KCL2 111920Z 36014KT 12/M05 A3021 RMK A01 T01211051  RH  030%=      5-min Rain = 0
KCL2 111921Z 36013KT 12/M05 A3021 RMK A01 T01201050  RH  030%=      5-min Rain = 0
KCL2 111922Z 00013KT 12/M05 A3021 RMK A01 T01201051  RH  030%=      5-min Rain = 0
KCL2 111923Z 36014KT 12/M05 A3021 RMK A01 T01201049  RH  030%=      5-min Rain = 0
KCL2 111924Z 00015KT 12/M05 A3021 RMK A01 T01211049  RH  030%=      5-min Rain = 0
KCL2 111925Z 01013KT 12/M05 A3021 RMK A01 T01221045  RH  031%=      5-min Rain = 0
KCL2 111926Z 01013KT 12/M05 A3021 RMK A01 T01231046  RH  030%=      5-min Rain = 0
KCL2 111927Z 36013KT 12/M04 A3021 RMK A01 T01241043  RH  031%=      5-min Rain = 0
KCL2 111928Z 35012KT 13/M04 A3021 RMK A01 T01251043  RH  031%=      5-min Rain = 0
KCL2 111929Z 35015KT 13/M04 A3021 RMK A01 T01271042  RH  031%=      5-min Rain = 0
KCL2 111930Z 35013G20KT 13/M04 A3021 RMK A01 T01261042  RH  031%=      5-min Rain = 0
KCL2 111931Z 35012KT 13/M04 A3021 RMK A01 T01291036  RH  032%=      5-min Rain = 0
KCL2 111932Z 00015G20KT 13/M03 A3021 RMK A01 T01331034  RH  031%=      5-min Rain = 0
KCL2 111933Z 01017KT 13/M04 A3021 RMK A01 T01311042  RH  030%=      5-min Rain = 0
KCL2 111934Z 00018KT 13/M05 A3022 RMK A01 T01281045  RH  030%=      5-min Rain = 0
KCL2 111935Z 00015KT 12/M05 A3022 RMK A01 T01241046  RH  030%=      5-min Rain = 0
KCL2 111936Z 01016KT 12/M05 A3021 RMK A01 T01231046  RH  030%=      5-min Rain = 0
KCL2 111937Z 01015KT 12/M05 A3021 RMK A01 T01231045  RH  031%=      5-min Rain = 0
KCL2 111938Z 01015KT 12/M05 A3021 RMK A01 T01231046  RH  030%=      5-min Rain = 0
KCL2 111939Z 01011KT 12/M04 A3021 RMK A01 T01231043  RH  031%=      5-min Rain = 0
KCL2 111940Z 36010KT 13/M04 A3021 RMK A01 T01261039  RH  031%=      5-min Rain = 0
KCL2 111941Z 35011KT 13/M04 A3022 RMK A01 T01291038  RH  031%=      5-min Rain = 0
KCL2 111942Z 01015KT 13/M04 A3022 RMK A01 T01301041  RH  030%=      5-min Rain = 0
KCL2 111943Z 00015G20KT 13/M05 A3021 RMK A01 T01271048  RH  029%=      5-min Rain = 0
KCL2 111944Z 36019KT 13/M05 A3022 RMK A01 T01251051  RH  029%=      5-min Rain = 0
KCL2 111945Z 36018KT 12/M06 A3022 RMK A01 T01221055  RH  029%=      5-min Rain = 0
KCL2 111946Z 35017KT 12/M05 A3022 RMK A01 T01221054  RH  029%=      5-min Rain = 0
KCL2 111947Z 00014KT 12/M05 A3021 RMK A01 T01221053  RH  029%=      5-min Rain = 0
KCL2 111948Z 35016KT 12/M05 A3021 RMK A01 T01241051  RH  029%=      5-min Rain = 0
KCL2 111949Z 35018KT 12/M05 A3021 RMK A01 T01241051  RH  029%=      5-min Rain = 0
KCL2 111950Z 36016KT 12/M05 A3021 RMK A01 T01241052  RH  029%=      5-min Rain = 0
KCL2 111951Z 00016KT 12/M05 A3021 RMK A01 T01221052  RH  029%=      5-min Rain = 0
KCL2 111952Z 35015KT 12/M05 A3021 RMK A01 T01221052  RH  029%=      5-min Rain = 0
KCL2 111953Z 35015G20KT 12/M05 A3021 RMK A01 T01221051  RH  029%=      5-min Rain = 0
KCL2 111954Z 35015KT 12/M05 A3021 RMK A01 T01231052  RH  029%=      5-min Rain = 0
KCL2 111955Z 35017KT 12/M05 A3021 RMK A01 T01231054  RH  029%=      5-min Rain = 0
KCL2 111956Z 35017G22KT 12/M05 A3021 RMK A01 T01231053  RH  029%=      5-min Rain = 0
KCL2 111957Z 35014KT 12/M05 A3021 RMK A01 T01221052  RH  029%=      5-min Rain = 0
KCL2 111958Z 36015KT 12/M05 A3021 RMK A01 T01221048  RH  030%=      5-min Rain = 0
KCL2 111959Z 00017KT 12/M05 A3021 RMK A01 T01231049  RH  030%=      5-min Rain = 0
KCL2 112000Z 36015KT 12/M05 A3021 RMK A01 T01221048  RH  030%=      5-min Rain = 0
KCL2 112001Z 36014KT 12/M05 A3021 RMK A01 T01211048  RH  030%=      5-min Rain = 0
KCL2 112002Z 36012KT 12/M05 A3021 RMK A01 T01211050  RH  030%=      5-min Rain = 0
KCL2 112003Z 35013KT 12/M05 A3021 RMK A01 T01211049  RH  030%=      5-min Rain = 0
KCL2 112004Z 34017G22KT 12/M05 A3021 RMK A01 T01231048  RH  030%=      5-min Rain = 0
KCL2 112005Z 33016KT 12/M05 A302 RMK A01 T01241049  RH  029%=      5-min Rain = 0
KCL2 112006Z 33016KT 13/M05 A3021 RMK A01 T01261050  RH  029%=      5-min Rain = 0
KCL2 112007Z 33013KT 13/M05 A302 RMK A01 T01301047  RH  029%=      5-min Rain = 0
KCL2 112008Z 35012G18KT 13/M04 A3021 RMK A01 T01341044  RH  029%=      5-min Rain = 0
KCL2 112009Z 34016KT 14/M04 A3021 RMK A01 T01381044  RH  028%=      5-min Rain = 0
KCL2 112010Z 35016G22KT 14/M05 A3021 RMK A01 T01391047  RH  027%=      5-min Rain = 0
KCL2 112011Z 35018KT 14/M05 A3021 RMK A01 T01371054  RH  026%=      5-min Rain = 0
KCL2 112012Z 35018G23KT 13/M06 A3021 RMK A01 T01331058  RH  026%=      5-min Rain = 0
KCL2 112013Z 00015KT 13/M06 A3021 RMK A01 T01291060  RH  026%=      5-min Rain = 0
KCL2 112014Z 36011KT 13/M06 A3021 RMK A01 T01271058  RH  027%=      5-min Rain = 0
KCL2 112015Z 36013G19KT 13/M06 A3021 RMK A01 T01271055  RH  028%=      5-min Rain = 0
KCL2 112016Z 35015KT 13/M05 A3021 RMK A01 T01281054  RH  028%=      5-min Rain = 0
KCL2 112017Z 34020KT 13/M05 A3021 RMK A01 T01281053  RH  028%=      5-min Rain = 0
KCL2 112018Z 34015KT 13/M06 A3021 RMK A01 T01281055  RH  027%=      5-min Rain = 0
KCL2 112019Z 35017KT 13/M05 A3021 RMK A01 T01291053  RH  028%=      5-min Rain = 0
KCL2 112020Z 35016KT 13/M06 A3021 RMK A01 T01291056  RH  027%=      5-min Rain = 0
KCL2 112021Z 35014KT 13/M05 A3021 RMK A01 T01281054  RH  028%=      5-min Rain = 0
KCL2 112022Z 35013G21KT 13/M05 A3021 RMK A01 T01291054  RH  028%=      5-min Rain = 0
KCL2 112023Z 01017KT 13/M05 A3021 RMK A01 T01301053  RH  027%=      5-min Rain = 0
KCL2 112024Z 35017KT 13/M05 A3021 RMK A01 T01311053  RH  027%=      5-min Rain = 0
KCL2 112025Z 34017KT 13/M06 A3021 RMK A01 T01321055  RH  027%=      5-min Rain = 0
KCL2 112026Z 34016G21KT 13/M06 A302 RMK A01 T01311055  RH  027%=      5-min Rain = 0
KCL2 112027Z 34016KT 13/M05 A302 RMK A01 T01311054  RH  027%=      5-min Rain = 0
KCL2 112028Z 34018G24KT 13/M06 A302 RMK A01 T01331055  RH  027%=      5-min Rain = 0
KCL2 112029Z 34020KT 13/M06 A302 RMK A01 T01321057  RH  026%=      5-min Rain = 0
KCL2 112030Z 35019KT 13/M06 A3021 RMK A01 T01291061  RH  026%=      5-min Rain = 0
KCL2 112031Z 35018KT 13/M06 A302 RMK A01 T01261061  RH  026%=      5-min Rain = 0
KCL2 112032Z 35015G21KT 13/M06 A302 RMK A01 T01261060  RH  027%=      5-min Rain = 0
KCL2 112033Z 35017G23KT 13/M06 A302 RMK A01 T01301058  RH  027%=      5-min Rain = 0
KCL2 112034Z 34014G20KT 14/M05 A302 RMK A01 T01351050  RH  027%=      5-min Rain = 0
KCL2 112035Z 34012KT 14/M04 A302 RMK A01 T01441043  RH  027%=      5-min Rain = 0
KCL2 112036Z 34013G19KT 15/M05 A302 RMK A01 T01511046  RH  025%=      5-min Rain = 0
KCL2 112037Z 34017G24KT 15/M05 A302 RMK A01 T01511050  RH  024%=      5-min Rain = 0
KCL2 112038Z 34019KT 15/M06 A302 RMK A01 T01491057  RH  024%=      5-min Rain = 0
KCL2 112039Z 35018G23KT 14/M06 A302 RMK A01 T01441058  RH  024%=      5-min Rain = 0
KCL2 112040Z 01015G21KT 14/M05 A3021 RMK A01 T01441053  RH  025%=      5-min Rain = 0
KCL2 112041Z 01014G19KT 14/M06 A3021 RMK A01 T01431062  RH  024%=      5-min Rain = 0
KCL2 112042Z 02014G19KT 14/M06 A3021 RMK A01 T01401060  RH  024%=      5-min Rain = 0
KCL2 112043Z 01015KT 14/M05 A3021 RMK A01 T01421054  RH  025%=      5-min Rain = 0
KCL2 112044Z 01017KT 15/M06 A3021 RMK A01 T01451056  RH  024%=      5-min Rain = 0
KCL2 112045Z 01017KT 14/M06 A3021 RMK A01 T01421060  RH  024%=      5-min Rain = 0
KCL2 112046Z 00016KT 14/M06 A3021 RMK A01 T01401057  RH  025%=      5-min Rain = 0
KCL2 112047Z 35014KT 14/M06 A3021 RMK A01 T01401056  RH  025%=      5-min Rain = 0
KCL2 112048Z 01013G18KT 14/M06 A3021 RMK A01 T01421055  RH  025%=      5-min Rain = 0
KCL2 112049Z 01015G20KT 14/M06 A302 RMK A01 T01421055  RH  025%=      5-min Rain = 0
KCL2 112050Z 00017KT 14/M05 A3021 RMK A01 T01411054  RH  026%=      5-min Rain = 0
KCL2 112051Z 01014KT 14/M06 A302 RMK A01 T01351063  RH  025%=      5-min Rain = 0
KCL2 112052Z 01015KT 13/M06 A302 RMK A01 T01311062  RH  026%=      5-min Rain = 0
KCL2 112053Z 01013KT 13/M06 A302 RMK A01 T01301059  RH  026%=      5-min Rain = 0
KCL2 112054Z 36011KT 13/M06 A302 RMK A01 T01321055  RH  027%=      5-min Rain = 0
KCL2 112055Z 01013KT 13/M06 A302 RMK A01 T01331056  RH  027%=      5-min Rain = 0
KCL2 112056Z 36015KT 13/M06 A302 RMK A01 T01321055  RH  027%=      5-min Rain = 0
KCL2 112057Z 36014G19KT 13/M06 A3021 RMK A01 T01311059  RH  026%=      5-min Rain = 0
KCL2 112058Z 00014KT 13/M06 A3021 RMK A01 T01281061  RH  026%=      5-min Rain = 0
KCL2 112059Z 36009KT 13/M06 A3021 RMK A01 T01261057  RH  027%=      5-min Rain = 0
KCL2 112100Z 35012KT 13/M05 A3021 RMK A01 T01291054  RH  028%=      5-min Rain = 0
KCL2 112101Z 34015KT 13/M06 A3021 RMK A01 T01271058  RH  027%=      5-min Rain = 0
KCL2 112102Z 34016KT 13/M06 A3021 RMK A01 T01261059  RH  027%=      5-min Rain = 0
KCL2 112103Z 34015KT 12/M06 A3021 RMK A01 T01231062  RH  027%=      5-min Rain = 0
KCL2 112104Z 35011G17KT 12/M06 A3021 RMK A01 T01221061  RH  027%=      5-min Rain = 0
KCL2 112105Z 34014KT 12/M06 A3021 RMK A01 T01221060  RH  027%=      5-min Rain = 0
KCL2 112106Z 35012KT 12/M06 A3021 RMK A01 T01231059  RH  028%=      5-min Rain = 0
KCL2 112107Z 35012KT 13/M06 A302 RMK A01 T01261057  RH  027%=      5-min Rain = 0
KCL2 112108Z 34012G17KT 13/M05 A302 RMK A01 T01301054  RH  027%=      5-min Rain = 0
KCL2 112109Z 35014KT 13/M06 A302 RMK A01 T01321055  RH  027%=      5-min Rain = 0
KCL2 112110Z 35014KT 13/M06 A302 RMK A01 T01341056  RH  026%=      5-min Rain = 0
KCL2 112111Z 35012KT 13/M06 A302 RMK A01 T01341056  RH  026%=      5-min Rain = 0
KCL2 112112Z 35015KT 14/M05 A302 RMK A01 T01381052  RH  026%=      5-min Rain = 0
KCL2 112113Z 35015KT 14/M06 A302 RMK A01 T01371059  RH  025%=      5-min Rain = 0
KCL2 112114Z 35013KT 13/M06 A302 RMK A01 T01341060  RH  025%=      5-min Rain = 0
KCL2 112115Z 35011G16KT 13/M06 A302 RMK A01 T01341056  RH  026%=      5-min Rain = 0
KCL2 112116Z 01012KT 14/M06 A302 RMK A01 T01361058  RH  025%=      5-min Rain = 0
KCL2 112117Z 34012G17KT 14/M06 A302 RMK A01 T01361058  RH  025%=      5-min Rain = 0
KCL2 112118Z 35015KT 14/M06 A302 RMK A01 T01391055  RH  026%=      5-min Rain = 0
KCL2 112119Z 34017KT 14/M06 A302 RMK A01 T01411059  RH  025%=      5-min Rain = 0
KCL2 112120Z 35013KT 14/M06 A302 RMK A01 T01401059  RH  025%=      5-min Rain = 0
KCL2 112121Z 35016KT 14/M06 A302 RMK A01 T01431057  RH  025%=      5-min Rain = 0
KCL2 112122Z 34017G22KT 14/M06 A302 RMK A01 T01441060  RH  024%=      5-min Rain = 0
KCL2 112123Z 35019G24KT 14/M06 A302 RMK A01 T01441062  RH  024%=      5-min Rain = 0
KCL2 112124Z 36016KT 14/M06 A302 RMK A01 T01431062  RH  024%=      5-min Rain = 0
KCL2 112125Z 00016KT 14/M06 A302 RMK A01 T01441060  RH  024%=      5-min Rain = 0
KCL2 112126Z 36013KT 14/M06 A302 RMK A01 T01431063  RH  024%=      5-min Rain = 0
KCL2 112127Z 00013KT 14/M06 A302 RMK A01 T01421061  RH  024%=      5-min Rain = 0
KCL2 112128Z 01012KT 14/M06 A302 RMK A01 T01431062  RH  024%=      5-min Rain = 0
KCL2 112129Z 36015KT 14/M06 A302 RMK A01 T01441059  RH  024%=      5-min Rain = 0
KCL2 112130Z 00016G23KT 14/M06 A302 RMK A01 T01431062  RH  024%=      5-min Rain = 0
KCL2 112131Z 35017KT 14/M07 A302 RMK A01 T01421065  RH  023%=      5-min Rain = 0
KCL2 112132Z 35014KT 14/M07 A302 RMK A01 T01391069  RH  023%=      5-min Rain = 0
KCL2 112133Z 36016KT 14/M06 A302 RMK A01 T01391063  RH  024%=      5-min Rain = 0
KCL2 112134Z 36019G24KT 14/M07 A302 RMK A01 T01401068  RH  023%=      5-min Rain = 0
KCL2 112135Z 00019KT 14/M07 A302 RMK A01 T01401070  RH  023%=      5-min Rain = 0
KCL2 112136Z 36013KT 14/M07 A302 RMK A01 T01391067  RH  023%=      5-min Rain = 0
KCL2 112137Z 35014KT 14/M07 A302 RMK A01 T01421065  RH  023%=      5-min Rain = 0
KCL2 112138Z 00012G17KT 15/M06 A302 RMK A01 T01451062  RH  023%=      5-min Rain = 0
KCL2 112139Z 36018KT 15/M06 A302 RMK A01 T01491060  RH  023%=      5-min Rain = 0
KCL2 112140Z 36018G23KT 15/M07 A3019 RMK A01 T01481067  RH  022%=      5-min Rain = 0
KCL2 112141Z 36017KT 15/M07 A302 RMK A01 T01471066  RH  022%=      5-min Rain = 0
KCL2 112142Z 35016KT 15/M07 A3019 RMK A01 T01471069  RH  022%=      5-min Rain = 0
KCL2 112143Z 35016KT 15/M07 A3019 RMK A01 T01471071  RH  022%=      5-min Rain = 0
KCL2 112144Z 35014KT 14/M07 A3019 RMK A01 T01441074  RH  021%=      5-min Rain = 0
KCL2 112145Z 00019G25KT 15/M07 A3019 RMK A01 T01451073  RH  021%=      5-min Rain = 0
KCL2 112146Z 36020G25KT 15/M08 A3019 RMK A01 T01451081  RH  020%=      5-min Rain = 0
KCL2 112147Z 36019G24KT 14/M08 A302 RMK A01 T01431082  RH  020%=      5-min Rain = 0
KCL2 112148Z 01015G20KT 14/M08 A302 RMK A01 T01411081  RH  021%=      5-min Rain = 0
KCL2 112149Z 01014G19KT 14/M08 A302 RMK A01 T01411075  RH  022%=      5-min Rain = 0
KCL2 112150Z 00013KT 14/M08 A302 RMK A01 T01421075  RH  022%=      5-min Rain = 0
KCL2 112151Z 35015KT 14/M08 A3019 RMK A01 T01431075  RH  021%=      5-min Rain = 0
KCL2 112152Z 36015KT 14/M08 A3019 RMK A01 T01441075  RH  021%=      5-min Rain = 0
KCL2 112153Z 35014KT 14/M07 A3019 RMK A01 T01431074  RH  022%=      5-min Rain = 0
KCL2 112154Z 35014G23KT 15/M07 A3019 RMK A01 T01451069  RH  022%=      5-min Rain = 0
KCL2 112155Z 36019KT 15/M07 A3019 RMK A01 T01461069  RH  022%=      5-min Rain = 0
KCL2 112156Z 35017KT 14/M07 A3019 RMK A01 T01441073  RH  022%=      5-min Rain = 0
KCL2 112157Z 35018KT 14/M08 A3019 RMK A01 T01421075  RH  022%=      5-min Rain = 0
KCL2 112158Z 34014G19KT 14/M08 A3019 RMK A01 T01401075  RH  022%=      5-min Rain = 0
KCL2 112159Z 34017KT 14/M07 A3019 RMK A01 T01431072  RH  022%=      5-min Rain = 0
KCL2 112200Z 35015KT 14/M08 A3019 RMK A01 T01431076  RH  021%=      5-min Rain = 0
KCL2 112201Z 35011KT 14/M07 A3019 RMK A01 T01421074  RH  022%=      5-min Rain = 0
KCL2 112202Z 34014KT 15/M07 A3019 RMK A01 T01451070  RH  022%=      5-min Rain = 0
KCL2 112203Z 34017KT 15/M07 A3019 RMK A01 T01451073  RH  021%=      5-min Rain = 0
KCL2 112204Z 35018KT 14/M07 A3019 RMK A01 T01441072  RH  022%=      5-min Rain = 0
KCL2 112205Z 35017KT 14/M07 A302 RMK A01 T01431073  RH  022%=      5-min Rain = 0
KCL2 112206Z 35016KT 14/M07 A3019 RMK A01 T01411074  RH  022%=      5-min Rain = 0
KCL2 112207Z 35017KT 14/M07 A3019 RMK A01 T01401073  RH  022%=      5-min Rain = 0
KCL2 112208Z 36018KT 14/M07 A302 RMK A01 T01401074  RH  022%=      5-min Rain = 0
KCL2 112209Z 36013G19KT 14/M08 A302 RMK A01 T01381075  RH  022%=      5-min Rain = 0
KCL2 112210Z 00017KT 14/M07 A302 RMK A01 T01401071  RH  023%=      5-min Rain = 0
KCL2 112211Z 01016KT 14/M07 A302 RMK A01 T01411073  RH  022%=      5-min Rain = 0
KCL2 112212Z 00016G21KT 14/M08 A302 RMK A01 T01401075  RH  022%=      5-min Rain = 0
KCL2 112213Z 00017KT 14/M08 A302 RMK A01 T01391077  RH  022%=      5-min Rain = 0
KCL2 112214Z 35016G21KT 14/M08 A302 RMK A01 T01371079  RH  022%=      5-min Rain = 0
KCL2 112215Z 33014KT 14/M08 A302 RMK A01 T01371079  RH  022%=      5-min Rain = 0
KCL2 112216Z 34013KT 14/M08 A302 RMK A01 T01381079  RH  021%=      5-min Rain = 0
KCL2 112217Z 35017KT 14/M08 A302 RMK A01 T01391077  RH  022%=      5-min Rain = 0
KCL2 112218Z 35018KT 14/M08 A302 RMK A01 T01391079  RH  021%=      5-min Rain = 0
KCL2 112219Z 34019KT 14/M08 A302 RMK A01 T01361081  RH  021%=      5-min Rain = 0
KCL2 112220Z 34017KT 14/M08 A302 RMK A01 T01351079  RH  022%=      5-min Rain = 0
KCL2 112221Z 34014KT 14/M08 A302 RMK A01 T01351078  RH  022%=      5-min Rain = 0
KCL2 112222Z 34015KT 14/M08 A302 RMK A01 T01361077  RH  022%=      5-min Rain = 0
KCL2 112223Z 34016G21KT 14/M08 A302 RMK A01 T01381076  RH  022%=      5-min Rain = 0
KCL2 112224Z 35016KT 14/M08 A302 RMK A01 T01381076  RH  022%=      5-min Rain = 0
KCL2 112225Z 35015KT 14/M08 A302 RMK A01 T01371078  RH  022%=      5-min Rain = 0
KCL2 112226Z 34014KT 14/M08 A302 RMK A01 T01371078  RH  022%=      5-min Rain = 0
KCL2 112227Z 34017KT 14/M08 A302 RMK A01 T01381076  RH  022%=      5-min Rain = 0
KCL2 112228Z 34018G26KT 14/M08 A302 RMK A01 T01391078  RH  021%=      5-min Rain = 0
KCL2 112229Z 35021G26KT 14/M08 A302 RMK A01 T01391080  RH  021%=      5-min Rain = 0
KCL2 112230Z 35016KT 14/M08 A302 RMK A01 T01371083  RH  021%=      5-min Rain = 0
KCL2 112231Z 36013KT 14/M08 A302 RMK A01 T01371079  RH  022%=      5-min Rain = 0
KCL2 112232Z 34016KT 14/M08 A302 RMK A01 T01381078  RH  022%=      5-min Rain = 0
KCL2 112233Z 35018G23KT 14/M08 A302 RMK A01 T01381081  RH  021%=      5-min Rain = 0
KCL2 112234Z 35019G24KT 14/M08 A302 RMK A01 T01371082  RH  021%=      5-min Rain = 0
KCL2 112235Z 01020KT 14/M08 A302 RMK A01 T01361083  RH  021%=      5-min Rain = 0
KCL2 112236Z 01017KT 13/M09 A302 RMK A01 T01341086  RH  021%=      5-min Rain = 0
KCL2 112237Z 01017KT 13/M09 A302 RMK A01 T01331087  RH  021%=      5-min Rain = 0
KCL2 112238Z 00018KT 13/M09 A302 RMK A01 T01331088  RH  021%=      5-min Rain = 0
KCL2 112239Z 36018KT 13/M09 A302 RMK A01 T01331086  RH  021%=      5-min Rain = 0
KCL2 112240Z 36017KT 13/M09 A302 RMK A01 T01331085  RH  021%=      5-min Rain = 0
KCL2 112241Z 35015KT 13/M08 A302 RMK A01 T01331084  RH  021%=      5-min Rain = 0
KCL2 112242Z 34018G24KT 13/M08 A302 RMK A01 T01341083  RH  021%=      5-min Rain = 0
KCL2 112243Z 36017G22KT 13/M08 A302 RMK A01 T01341084  RH  021%=      5-min Rain = 0
KCL2 112244Z 00016KT 14/M08 A302 RMK A01 T01351082  RH  021%=      5-min Rain = 0
KCL2 112245Z 00020KT 13/M09 A302 RMK A01 T01341085  RH  021%=      5-min Rain = 0
KCL2 112246Z 36015G21KT 13/M09 A302 RMK A01 T01321088  RH  021%=      5-min Rain = 0
KCL2 112247Z 00014G19KT 13/M09 A302 RMK A01 T01311085  RH  021%=      5-min Rain = 0
KCL2 112248Z 00016KT 13/M09 A302 RMK A01 T01311085  RH  021%=      5-min Rain = 0
KCL2 112249Z 35013KT 13/M09 A302 RMK A01 T01311085  RH  021%=      5-min Rain = 0
KCL2 112250Z 00014G19KT 13/M09 A302 RMK A01 T01311085  RH  021%=      5-min Rain = 0
KCL2 112251Z 01015KT 13/M08 A302 RMK A01 T01311084  RH  022%=      5-min Rain = 0
KCL2 112252Z 01012KT 13/M08 A302 RMK A01 T01321084  RH  021%=      5-min Rain = 0
KCL2 112253Z 35012KT 13/M08 A302 RMK A01 T01331083  RH  021%=      5-min Rain = 0
KCL2 112254Z 00011KT 14/M08 A302 RMK A01 T01351081  RH  021%=      5-min Rain = 0
KCL2 112255Z 00011KT 14/M08 A302 RMK A01 T01381080  RH  021%=      5-min Rain = 0
KCL2 112256Z 02012KT 14/M08 A302 RMK A01 T01391079  RH  021%=      5-min Rain = 0
KCL2 112257Z 01016KT 14/M08 A302 RMK A01 T01391083  RH  021%=      5-min Rain = 0
KCL2 112258Z 02014G21KT 14/M08 A302 RMK A01 T01381084  RH  021%=      5-min Rain = 0
KCL2 112259Z 01018KT 14/M09 A3021 RMK A01 T01381085  RH  021%=      5-min Rain = 0
KCL2 112300Z 35015KT 14/M09 A3021 RMK A01 T01361088  RH  020%=      5-min Rain = 0
KCL2 112301Z 00016KT 14/M09 A3021 RMK A01 T01361090  RH  020%=      5-min Rain = 0
KCL2 112302Z 34014KT 14/M09 A3021 RMK A01 T01361089  RH  020%=      5-min Rain = 0
KCL2 112303Z 35014KT 14/M09 A3021 RMK A01 T01371087  RH  020%=      5-min Rain = 0
KCL2 112304Z 35014KT 14/M09 A3021 RMK A01 T01371087  RH  020%=      5-min Rain = 0
KCL2 112305Z 34014KT 14/M09 A3021 RMK A01 T01361089  RH  020%=      5-min Rain = 0
KCL2 112306Z 35013KT 14/M09 A3021 RMK A01 T01351091  RH  020%=      5-min Rain = 0
KCL2 112307Z 36017KT 14/M09 A3021 RMK A01 T01351090  RH  020%=      5-min Rain = 0
KCL2 112308Z 35016KT 13/M09 A3021 RMK A01 T01341091  RH  020%=      5-min Rain = 0
KCL2 112309Z 36017KT 13/M09 A3021 RMK A01 T01331091  RH  020%=      5-min Rain = 0
KCL2 112310Z 36016KT 13/M09 A3021 RMK A01 T01331091  RH  020%=      5-min Rain = 0
KCL2 112311Z 36013KT 13/M09 A3021 RMK A01 T01321091  RH  020%=      5-min Rain = 0
KCL2 112312Z 36015KT 13/M09 A3021 RMK A01 T01321091  RH  020%=      5-min Rain = 0
KCL2 112313Z 00014KT 13/M09 A3021 RMK A01 T01321090  RH  021%=      5-min Rain = 0
KCL2 112314Z 36016KT 13/M09 A3021 RMK A01 T01331086  RH  021%=      5-min Rain = 0
KCL2 112315Z 00016KT 13/M09 A3021 RMK A01 T01331088  RH  021%=      5-min Rain = 0
KCL2 112316Z 35012KT 13/M09 A3021 RMK A01 T01331088  RH  021%=      5-min Rain = 0
KCL2 112317Z 35010KT 13/M09 A3021 RMK A01 T01331087  RH  021%=      5-min Rain = 0
KCL2 112318Z 36013KT 13/M09 A3021 RMK A01 T01341086  RH  021%=      5-min Rain = 0
KCL2 112319Z 35013KT 14/M09 A3021 RMK A01 T01351086  RH  021%=      5-min Rain = 0
KCL2 112320Z 35016KT 14/M09 A3021 RMK A01 T01351088  RH  020%=      5-min Rain = 0
KCL2 112321Z 35013KT 13/M09 A3021 RMK A01 T01341091  RH  020%=      5-min Rain = 0
KCL2 112322Z 00013KT 13/M09 A3021 RMK A01 T01331089  RH  020%=      5-min Rain = 0
KCL2 112323Z 01012KT 13/M09 A3021 RMK A01 T01331090  RH  020%=      5-min Rain = 0
KCL2 112324Z 01011KT 13/M09 A3021 RMK A01 T01331090  RH  020%=      5-min Rain = 0
KCL2 112325Z 01016KT 13/M09 A3021 RMK A01 T01341088  RH  021%=      5-min Rain = 0
KCL2 112326Z 35016KT 13/M09 A3021 RMK A01 T01341089  RH  020%=      5-min Rain = 0
KCL2 112327Z 36016KT 13/M09 A3021 RMK A01 T01341089  RH  020%=      5-min Rain = 0
KCL2 112328Z 35014KT 13/M09 A3021 RMK A01 T01341091  RH  020%=      5-min Rain = 0
KCL2 112329Z 35012KT 13/M09 A3021 RMK A01 T01341090  RH  020%=      5-min Rain = 0
KCL2 112330Z 00012KT 14/M09 A3021 RMK A01 T01351090  RH  020%=      5-min Rain = 0
KCL2 112331Z 36011KT 14/M09 A3021 RMK A01 T01351090  RH  020%=      5-min Rain = 0
KCL2 112332Z 35013G18KT 14/M09 A3021 RMK A01 T01351088  RH  020%=      5-min Rain = 0
KCL2 112333Z 36013KT 14/M09 A3021 RMK A01 T01361090  RH  020%=      5-min Rain = 0
KCL2 112334Z 00009KT 14/M09 A3021 RMK A01 T01351088  RH  020%=      5-min Rain = 0
KCL2 112335Z 01009KT 14/M09 A3021 RMK A01 T01351085  RH  021%=      5-min Rain = 0
KCL2 112336Z 01013KT 14/M08 A3021 RMK A01 T01351084  RH  021%=      5-min Rain = 0
KCL2 112337Z 01014KT 14/M09 A3021 RMK A01 T01351090  RH  020%=      5-min Rain = 0
KCL2 112338Z 00013KT 13/M09 A3021 RMK A01 T01331092  RH  020%=      5-min Rain = 0
KCL2 112339Z 35012KT 13/M09 A3021 RMK A01 T01311091  RH  020%=      5-min Rain = 0
KCL2 112340Z 34012KT 13/M09 A3021 RMK A01 T01301092  RH  020%=      5-min Rain = 0
KCL2 112341Z 35014KT 13/M09 A3021 RMK A01 T01301092  RH  020%=      5-min Rain = 0
KCL2 112342Z 35015KT 13/M09 A3021 RMK A01 T01291094  RH  020%=      5-min Rain = 0
KCL2 112343Z 35014G19KT 13/M10 A3021 RMK A01 T01291095  RH  020%=      5-min Rain = 0
KCL2 112344Z 35014KT 13/M10 A3021 RMK A01 T01291097  RH  020%=      5-min Rain = 0
KCL2 112345Z 36011KT 13/M10 A3022 RMK A01 T01291097  RH  020%=      5-min Rain = 0
KCL2 112346Z 36013KT 13/M10 A3022 RMK A01 T01281097  RH  020%=      5-min Rain = 0
KCL2 112347Z 35009KT 13/M10 A3022 RMK A01 T01281095  RH  020%=      5-min Rain = 0
KCL2 112348Z 35011KT 13/M10 A3022 RMK A01 T01271095  RH  020%=      5-min Rain = 0
KCL2 112349Z 35012KT 13/M10 A3022 RMK A01 T01271097  RH  020%=      5-min Rain = 0
KCL2 112350Z 35013KT 13/M10 A3022 RMK A01 T01281096  RH  020%=      5-min Rain = 0
KCL2 112351Z 35012KT 13/M10 A3021 RMK A01 T01301096  RH  020%=      5-min Rain = 0
KCL2 112352Z 36014KT 13/M10 A3021 RMK A01 T01301097  RH  020%=      5-min Rain = 0
KCL2 112353Z 00010KT 13/M10 A3022 RMK A01 T01301097  RH  020%=      5-min Rain = 0
KCL2 112354Z 00010KT 13/M09 A3021 RMK A01 T01321094  RH  020%=      5-min Rain = 0
KCL2 112355Z 00011KT 13/M10 A3021 RMK A01 T01321095  RH  020%=      5-min Rain = 0
KCL2 112356Z 01010KT 13/M10 A3021 RMK A01 T01311096  RH  020%=      5-min Rain = 0
KCL2 112357Z 01009KT 13/M10 A3021 RMK A01 T01321095  RH  020%=      5-min Rain = 0
KCL2 112358Z 01011KT 13/M10 A3021 RMK A01 T01321096  RH  020%=      5-min Rain = 0
KCL2 112359Z 01012G17KT 13/M10 A3021 RMK A01 T01321097  RH  019%=      5-min Rain = 0
KCL2 120000Z 01014KT 13/M10 A3021 RMK A01 T01321098  RH  019%=      5-min Rain = 0
KCL2 120001Z 00013KT 13/M10 A3022 RMK A01 T01321101  RH  019%=      5-min Rain = 0
KCL2 120002Z 36012KT 13/M10 A3022 RMK A01 T01321100  RH  019%=      5-min Rain = 0
KCL2 120003Z 36013G18KT 13/M10 A3022 RMK A01 T01321101  RH  019%=      5-min Rain = 0
KCL2 120004Z 01014KT 13/M10 A3022 RMK A01 T01321103  RH  019%=      5-min Rain = 0
KCL2 120005Z 00014KT 13/M10 A3022 RMK A01 T01321103  RH  018%=      5-min Rain = 0
KCL2 120006Z 00013G18KT 13/M10 A3022 RMK A01 T01321104  RH  018%=      5-min Rain = 0
KCL2 120007Z 01014KT 13/M11 A3022 RMK A01 T01321107  RH  018%=      5-min Rain = 0
KCL2 120008Z 00013KT 13/M11 A3022 RMK A01 T01321105  RH  018%=      5-min Rain = 0
KCL2 120009Z 00013KT 13/M10 A3022 RMK A01 T01321102  RH  019%=      5-min Rain = 0
KCL2 120010Z 00012G17KT 13/M10 A3022 RMK A01 T01311102  RH  019%=      5-min Rain = 0
KCL2 120011Z 36011KT 13/M10 A3022 RMK A01 T01301101  RH  019%=      5-min Rain = 0
KCL2 120012Z 36011KT 13/M10 A3022 RMK A01 T01301103  RH  019%=      5-min Rain = 0
KCL2 120013Z 36011KT 13/M10 A3022 RMK A01 T01291103  RH  019%=      5-min Rain = 0
KCL2 120014Z 35011KT 13/M10 A3022 RMK A01 T01291103  RH  019%=      5-min Rain = 0
KCL2 120015Z 35011KT 13/M11 A3022 RMK A01 T01281105  RH  019%=      5-min Rain = 0
KCL2 120016Z 36009KT 13/M11 A3022 RMK A01 T01281105  RH  019%=      5-min Rain = 0
KCL2 120017Z 00011KT 13/M10 A3022 RMK A01 T01281104  RH  019%=      5-min Rain = 0
KCL2 120018Z 36011KT 13/M10 A3022 RMK A01 T01281102  RH  019%=      5-min Rain = 0
KCL2 120019Z 00012KT 13/M10 A3022 RMK A01 T01271103  RH  019%=      5-min Rain = 0
KCL2 120020Z 00011KT 13/M10 A3022 RMK A01 T01271103  RH  019%=      5-min Rain = 0
KCL2 120021Z 36012KT 13/M10 A3022 RMK A01 T01261103  RH  019%=      5-min Rain = 0
KCL2 120022Z 00011G16KT 13/M10 A3022 RMK A01 T01261103  RH  019%=      5-min Rain = 0
KCL2 120023Z 36010KT 13/M10 A3022 RMK A01 T01261103  RH  019%=      5-min Rain = 0
KCL2 120024Z 00011KT 13/M10 A3023 RMK A01 T01261102  RH  019%=      5-min Rain = 0
KCL2 120025Z 00011KT 13/M10 A3023 RMK A01 T01251101  RH  020%=      5-min Rain = 0
KCL2 120026Z 00011KT 13/M10 A3023 RMK A01 T01251101  RH  020%=      5-min Rain = 0
KCL2 120027Z 00014KT 13/M10 A3023 RMK A01 T01251102  RH  019%=      5-min Rain = 0
KCL2 120028Z 00011KT 13/M10 A3023 RMK A01 T01251103  RH  019%=      5-min Rain = 0
KCL2 120029Z 00011KT 13/M10 A3023 RMK A01 T01251100  RH  020%=      5-min Rain = 0
KCL2 120030Z 36012KT 12/M10 A3023 RMK A01 T01241101  RH  020%=      5-min Rain = 0
KCL2 120031Z 00011KT 12/M10 A3022 RMK A01 T01241101  RH  020%=      5-min Rain = 0
KCL2 120032Z 36009KT 12/M10 A3023 RMK A01 T01231101  RH  020%=      5-min Rain = 0
KCL2 120033Z 36011KT 12/M10 A3023 RMK A01 T01221101  RH  020%=      5-min Rain = 0
KCL2 120034Z 00010KT 12/M10 A3023 RMK A01 T01211101  RH  020%=      5-min Rain = 0
KCL2 120035Z 01011KT 12/M10 A3023 RMK A01 T01211100  RH  020%=      5-min Rain = 0
KCL2 120036Z 00011KT 12/M10 A3023 RMK A01 T01201100  RH  020%=      5-min Rain = 0
KCL2 120037Z 00010KT 12/M10 A3023 RMK A01 T01201098  RH  021%=      5-min Rain = 0
KCL2 120038Z 36008KT 12/M10 A3023 RMK A01 T01201097  RH  021%=      5-min Rain = 0
KCL2 120039Z 00010KT 12/M10 A3023 RMK A01 T01191096  RH  021%=      5-min Rain = 0
KCL2 120040Z 35008KT 12/M10 A3023 RMK A01 T01181097  RH  021%=      5-min Rain = 0
KCL2 120041Z 35009KT 12/M10 A3023 RMK A01 T01171097  RH  021%=      5-min Rain = 0
KCL2 120042Z 35007KT 12/M10 A3023 RMK A01 T01171096  RH  021%=      5-min Rain = 0
KCL2 120043Z 36009KT 12/M10 A3023 RMK A01 T01161096  RH  022%=      5-min Rain = 0
KCL2 120044Z 36009KT 12/M10 A3023 RMK A01 T01161096  RH  022%=      5-min Rain = 0
KCL2 120045Z 01009KT 12/M10 A3023 RMK A01 T01151095  RH  022%=      5-min Rain = 0
KCL2 120046Z 36008KT 12/M09 A3023 RMK A01 T01151094  RH  022%=      5-min Rain = 0
KCL2 120047Z 00009KT 11/M10 A3023 RMK A01 T01131095  RH  022%=      5-min Rain = 0
KCL2 120048Z 00009KT 11/M09 A3023 RMK A01 T01131094  RH  022%=      5-min Rain = 0
KCL2 120049Z 00008KT 11/M10 A3023 RMK A01 T01121095  RH  022%=      5-min Rain = 0
KCL2 120050Z 00008KT 11/M09 A3023 RMK A01 T01121093  RH  023%=      5-min Rain = 0
KCL2 120051Z 01009KT 11/M09 A3023 RMK A01 T01111093  RH  023%=      5-min Rain = 0
KCL2 120052Z 01009KT 11/M09 A3023 RMK A01 T01111093  RH  023%=      5-min Rain = 0
KCL2 120053Z 01009KT 11/M09 A3024 RMK A01 T01121093  RH  023%=      5-min Rain = 0
KCL2 120054Z 00008KT 11/M09 A3024 RMK A01 T01131092  RH  023%=      5-min Rain = 0
KCL2 120055Z 01006KT 11/M09 A3024 RMK A01 T01121091  RH  023%=      5-min Rain = 0
KCL2 120056Z 01007KT 11/M09 A3024 RMK A01 T01111090  RH  023%=      5-min Rain = 0
KCL2 120057Z 00007KT 11/M09 A3024 RMK A01 T01111091  RH  023%=      5-min Rain = 0
KCL2 120058Z 00009KT 11/M09 A3024 RMK A01 T01101090  RH  024%=      5-min Rain = 0
KCL2 120059Z 01007KT 11/M09 A3024 RMK A01 T01101091  RH  024%=      5-min Rain = 0
KCL2 120100Z 01006KT 11/M09 A3024 RMK A01 T01091090  RH  024%=      5-min Rain = 0
KCL2 120101Z 01006KT 11/M09 A3024 RMK A01 T01081089  RH  024%=      5-min Rain = 0
KCL2 120102Z 36007KT 11/M09 A3024 RMK A01 T01071088  RH  025%=      5-min Rain = 0
KCL2 120103Z 36007KT 11/M09 A3024 RMK A01 T01061087  RH  025%=      5-min Rain = 0
KCL2 120104Z 00007KT 11/M09 A3024 RMK A01 T01051087  RH  025%=      5-min Rain = 0
KCL2 120105Z 00008KT 11/M09 A3024 RMK A01 T01051086  RH  025%=      5-min Rain = 0
KCL2 120106Z 01006KT 11/M09 A3024 RMK A01 T01051085  RH  025%=      5-min Rain = 0
KCL2 120107Z 01007KT 11/M08 A3024 RMK A01 T01051083  RH  026%=      5-min Rain = 0
KCL2 120108Z 01008KT 11/M08 A3024 RMK A01 T01051082  RH  026%=      5-min Rain = 0
KCL2 120109Z 01007KT 11/M08 A3024 RMK A01 T01061082  RH  026%=      5-min Rain = 0
KCL2 120110Z 00007KT 11/M08 A3024 RMK A01 T01051081  RH  026%=      5-min Rain = 0
KCL2 120111Z 00007KT 11/M08 A3024 RMK A01 T01051079  RH  027%=      5-min Rain = 0
KCL2 120112Z 36008KT 10/M08 A3024 RMK A01 T01041079  RH  027%=      5-min Rain = 0
KCL2 120113Z 01007KT 10/M08 A3024 RMK A01 T01041077  RH  027%=      5-min Rain = 0
KCL2 120114Z 01006KT 10/M08 A3024 RMK A01 T01031077  RH  027%=      5-min Rain = 0
KCL2 120115Z 00006KT 10/M08 A3024 RMK A01 T01031075  RH  028%=      5-min Rain = 0
KCL2 120116Z 01007KT 10/M08 A3024 RMK A01 T01021076  RH  028%=      5-min Rain = 0
KCL2 120117Z 01008KT 10/M08 A3025 RMK A01 T01011076  RH  028%=      5-min Rain = 0
KCL2 120118Z 01007KT 10/M08 A3025 RMK A01 T01011076  RH  028%=      5-min Rain = 0
KCL2 120119Z 01007KT 10/M08 A3025 RMK A01 T01011075  RH  028%=      5-min Rain = 0
KCL2 120120Z 01007KT 10/M08 A3025 RMK A01 T01011075  RH  028%=      5-min Rain = 0
KCL2 120121Z 01007KT 10/M07 A3025 RMK A01 T01011074  RH  028%=      5-min Rain = 0
KCL2 120122Z 01007KT 10/M07 A3025 RMK A01 T01001074  RH  029%=      5-min Rain = 0
KCL2 120123Z 00007KT 10/M07 A3025 RMK A01 T00991074  RH  029%=      5-min Rain = 0
KCL2 120124Z 00007KT 10/M07 A3025 RMK A01 T00991073  RH  029%=      5-min Rain = 0
KCL2 120125Z 01006KT 10/M07 A3025 RMK A01 T00991072  RH  029%=      5-min Rain = 0
KCL2 120126Z 01006KT 10/M07 A3025 RMK A01 T00981072  RH  029%=      5-min Rain = 0
KCL2 120127Z 01007KT 10/M07 A3025 RMK A01 T00981071  RH  030%=      5-min Rain = 0
KCL2 120128Z 01006KT 10/M07 A3025 RMK A01 T00971072  RH  030%=      5-min Rain = 0
KCL2 120129Z 02006KT 10/M07 A3025 RMK A01 T00961072  RH  030%=      5-min Rain = 0
KCL2 120130Z 02006KT 10/M07 A3025 RMK A01 T00951071  RH  030%=      5-min Rain = 0
KCL2 120131Z 02007KT 10/M07 A3025 RMK A01 T00951071  RH  030%=      5-min Rain = 0
KCL2 120132Z 02006KT 09/M07 A3025 RMK A01 T00941070  RH  031%=      5-min Rain = 0
KCL2 120133Z 02006KT 09/M07 A3025 RMK A01 T00931070  RH  031%=      5-min Rain = 0
KCL2 120134Z 02006KT 09/M07 A3025 RMK A01 T00911069  RH  032%=      5-min Rain = 0
KCL2 120135Z 01005KT 09/M07 A3026 RMK A01 T00901069  RH  032%=      5-min Rain = 0
KCL2 120136Z 01006KT 09/M07 A3026 RMK A01 T00901069  RH  032%=      5-min Rain = 0
KCL2 120137Z 02006KT 09/M07 A3026 RMK A01 T00901069  RH  032%=      5-min Rain = 0
KCL2 120138Z 01006KT 09/M07 A3026 RMK A01 T00901070  RH  032%=      5-min Rain = 0
KCL2 120139Z 01006KT 09/M07 A3026 RMK A01 T00901069  RH  032%=      5-min Rain = 0
KCL2 120140Z 01006KT 09/M07 A3026 RMK A01 T00901069  RH  032%=      5-min Rain = 0
KCL2 120141Z 01006KT 09/M07 A3026 RMK A01 T00901069  RH  032%=      5-min Rain = 0
KCL2 120142Z 01006KT 09/M07 A3026 RMK A01 T00901069  RH  032%=      5-min Rain = 0
KCL2 120143Z 01006KT 09/M07 A3026 RMK A01 T00901068  RH  032%=      5-min Rain = 0
KCL2 120144Z 01006KT 09/M07 A3026 RMK A01 T00901068  RH  032%=      5-min Rain = 0
KCL2 120145Z 01006KT 09/M07 A3026 RMK A01 T00891066  RH  033%=      5-min Rain = 0
KCL2 120146Z 01006KT 09/M07 A3026 RMK A01 T00891066  RH  033%=      5-min Rain = 0
KCL2 120147Z 01006KT 09/M07 A3026 RMK A01 T00881066  RH  033%=      5-min Rain = 0
KCL2 120148Z 01006KT 09/M07 A3026 RMK A01 T00881066  RH  033%=      5-min Rain = 0
KCL2 120149Z 01006KT 09/M07 A3026 RMK A01 T00871066  RH  033%=      5-min Rain = 0
KCL2 120150Z 01006KT 09/M07 A3026 RMK A01 T00871066  RH  033%=      5-min Rain = 0
KCL2 120151Z 01007KT 09/M07 A3026 RMK A01 T00871065  RH  034%=      5-min Rain = 0
KCL2 120152Z 01006KT 09/M06 A3026 RMK A01 T00861064  RH  034%=      5-min Rain = 0
KCL2 120153Z 01006KT 09/M06 A3026 RMK A01 T00861064  RH  034%=      5-min Rain = 0
KCL2 120154Z 01007KT 09/M06 A3026 RMK A01 T00861063  RH  034%=      5-min Rain = 0
KCL2 120155Z 01006KT 09/M06 A3026 RMK A01 T00861062  RH  034%=      5-min Rain = 0
KCL2 120156Z 01006KT 09/M06 A3026 RMK A01 T00861061  RH  035%=      5-min Rain = 0
KCL2 120157Z 01006KT 09/M06 A3026 RMK A01 T00861060  RH  035%=      5-min Rain = 0
KCL2 120158Z 01006KT 09/M06 A3026 RMK A01 T00851059  RH  035%=      5-min Rain = 0
KCL2 120159Z 01006KT 09/M06 A3027 RMK A01 T00851058  RH  036%=      5-min Rain = 0
KCL2 120200Z 01006KT 08/M06 A3027 RMK A01 T00841058  RH  036%=      5-min Rain = 0
KCL2 120201Z 01006KT 08/M06 A3027 RMK A01 T00841057  RH  036%=      5-min Rain = 0
KCL2 120202Z 01006KT 08/M06 A3027 RMK A01 T00831057  RH  037%=      5-min Rain = 0
KCL2 120203Z 01006KT 08/M06 A3027 RMK A01 T00821057  RH  037%=      5-min Rain = 0
KCL2 120204Z 01006KT 08/M06 A3027 RMK A01 T00811057  RH  037%=      5-min Rain = 0
KCL2 120205Z 02006KT 08/M06 A3027 RMK A01 T00821055  RH  037%=      5-min Rain = 0
KCL2 120206Z 02006KT 08/M05 A3027 RMK A01 T00821054  RH  037%=      5-min Rain = 0
KCL2 120207Z 02007KT 08/M05 A3027 RMK A01 T00821054  RH  038%=      5-min Rain = 0
KCL2 120208Z 02007KT 08/M05 A3027 RMK A01 T00811053  RH  038%=      5-min Rain = 0
KCL2 120209Z 02007KT 08/M05 A3027 RMK A01 T00791052  RH  039%=      5-min Rain = 0
KCL2 120210Z 02007KT 08/M05 A3027 RMK A01 T00791051  RH  039%=      5-min Rain = 0
KCL2 120211Z 02007KT 08/M05 A3027 RMK A01 T00781051  RH  040%=      5-min Rain = 0
KCL2 120212Z 02007KT 08/M05 A3027 RMK A01 T00771050  RH  040%=      5-min Rain = 0
KCL2 120213Z 02007KT 08/M05 A3027 RMK A01 T00771050  RH  040%=      5-min Rain = 0
KCL2 120214Z 02007KT 08/M05 A3027 RMK A01 T00771050  RH  040%=      5-min Rain = 0
KCL2 120215Z 02007KT 08/M05 A3027 RMK A01 T00781049  RH  040%=      5-min Rain = 0
KCL2 120216Z 02007KT 08/M05 A3027 RMK A01 T00771047  RH  041%=      5-min Rain = 0
KCL2 120217Z 03007KT 08/M05 A3027 RMK A01 T00761046  RH  041%=      5-min Rain = 0
KCL2 120218Z 02007KT 08/M05 A3027 RMK A01 T00761046  RH  042%=      5-min Rain = 0
KCL2 120219Z 03008KT 08/M05 A3027 RMK A01 T00761047  RH  041%=      5-min Rain = 0
KCL2 120220Z 02007KT 08/M05 A3028 RMK A01 T00761047  RH  041%=      5-min Rain = 0
KCL2 120221Z 03007KT 08/M05 A3028 RMK A01 T00761047  RH  041%=      5-min Rain = 0
KCL2 120222Z 03007KT 08/M05 A3028 RMK A01 T00771046  RH  041%=      5-min Rain = 0
KCL2 120223Z 03008KT 08/M05 A3028 RMK A01 T00771045  RH  042%=      5-min Rain = 0
KCL2 120224Z 03007KT 08/M04 A3028 RMK A01 T00791043  RH  042%=      5-min Rain = 0
KCL2 120225Z 02008KT 08/M04 A3028 RMK A01 T00791043  RH  042%=      5-min Rain = 0
KCL2 120226Z 03007KT 08/M04 A3028 RMK A01 T00791042  RH  042%=      5-min Rain = 0
KCL2 120227Z 02007KT 08/M04 A3028 RMK A01 T00801042  RH  042%=      5-min Rain = 0
KCL2 120228Z 02008KT 08/M04 A3028 RMK A01 T00801041  RH  042%=      5-min Rain = 0
KCL2 120229Z 02006KT 08/M04 A3028 RMK A01 T00801040  RH  042%=      5-min Rain = 0
KCL2 120230Z 02006KT 08/M04 A3028 RMK A01 T00801039  RH  043%=      5-min Rain = 0
KCL2 120231Z 02007KT 08/M04 A3028 RMK A01 T00801039  RH  043%=      5-min Rain = 0
KCL2 120232Z 02007KT 08/M04 A3028 RMK A01 T00791038  RH  043%=      5-min Rain = 0
KCL2 120233Z 02007KT 08/M04 A3028 RMK A01 T00801038  RH  043%=      5-min Rain = 0
KCL2 120234Z 03008KT 08/M04 A3028 RMK A01 T00801038  RH  043%=      5-min Rain = 0
KCL2 120235Z 02008KT 08/M04 A3028 RMK A01 T00801038  RH  043%=      5-min Rain = 0
KCL2 120236Z 02007KT 08/M04 A3028 RMK A01 T00811038  RH  043%=      5-min Rain = 0
KCL2 120237Z 03007KT 08/M04 A3028 RMK A01 T00811038  RH  043%=      5-min Rain = 0
KCL2 120238Z 02007KT 08/M04 A3028 RMK A01 T00811038  RH  043%=      5-min Rain = 0
KCL2 120239Z 03007KT 08/M04 A3028 RMK A01 T00811037  RH  043%=      5-min Rain = 0
KCL2 120240Z 02008KT 08/M04 A3028 RMK A01 T00801037  RH  043%=      5-min Rain = 0
KCL2 120241Z 02008KT 08/M04 A3028 RMK A01 T00801036  RH  043%=      5-min Rain = 0
KCL2 120242Z 03009KT 08/M04 A3028 RMK A01 T00811036  RH  044%=      5-min Rain = 0
KCL2 120243Z 02008KT 08/M04 A3028 RMK A01 T00801036  RH  044%=      5-min Rain = 0
KCL2 120244Z 02008KT 08/M04 A3028 RMK A01 T00801036  RH  044%=      5-min Rain = 0
KCL2 120245Z 02008KT 08/M04 A3028 RMK A01 T00801035  RH  044%=      5-min Rain = 0
KCL2 120246Z 03008KT 08/M04 A3028 RMK A01 T00801035  RH  044%=      5-min Rain = 0
KCL2 120247Z 03009KT 08/M04 A3028 RMK A01 T00801035  RH  044%=      5-min Rain = 0
KCL2 120248Z 03009KT 08/M04 A3028 RMK A01 T00811035  RH  044%=      5-min Rain = 0
KCL2 120249Z 03009KT 08/M04 A3028 RMK A01 T00821035  RH  044%=      5-min Rain = 0
KCL2 120250Z 03009KT 08/M04 A3028 RMK A01 T00821035  RH  043%=      5-min Rain = 0
KCL2 120251Z 04009KT 08/M04 A3028 RMK A01 T00821035  RH  043%=      5-min Rain = 0
KCL2 120252Z 03008KT 08/M04 A3028 RMK A01 T00821035  RH  043%=      5-min Rain = 0
KCL2 120253Z 03009KT 08/M04 A3028 RMK A01 T00821035  RH  043%=      5-min Rain = 0
KCL2 120254Z 03009KT 08/M04 A3028 RMK A01 T00821036  RH  043%=      5-min Rain = 0
KCL2 120255Z 03010KT 08/M04 A3028 RMK A01 T00831035  RH  043%=      5-min Rain = 0
KCL2 120256Z 03009KT 08/M04 A3028 RMK A01 T00831035  RH  043%=      5-min Rain = 0
KCL2 120257Z 02009KT 08/M04 A3028 RMK A01 T00831035  RH  043%=      5-min Rain = 0
KCL2 120258Z 03009KT 08/M03 A3028 RMK A01 T00831034  RH  043%=      5-min Rain = 0
KCL2 120259Z 03010KT 08/M03 A3028 RMK A01 T00841034  RH  043%=      5-min Rain = 0
KCL2 120300Z 03009KT 09/M03 A3028 RMK A01 T00851034  RH  043%=      5-min Rain = 0
KCL2 120301Z 02010KT 09/M03 A3028 RMK A01 T00851034  RH  043%=      5-min Rain = 0
KCL2 120302Z 03008KT 09/M03 A3028 RMK A01 T00861034  RH  043%=      5-min Rain = 0
KCL2 120303Z 03009KT 09/M03 A3028 RMK A01 T00861033  RH  043%=      5-min Rain = 0
KCL2 120304Z 03010KT 09/M03 A3028 RMK A01 T00861034  RH  043%=      5-min Rain = 0
KCL2 120305Z 03009KT 09/M03 A3028 RMK A01 T00861033  RH  043%=      5-min Rain = 0
KCL2 120306Z 03009KT 09/M03 A3028 RMK A01 T00871033  RH  043%=      5-min Rain = 0
KCL2 120307Z 03010KT 09/M03 A3028 RMK A01 T00861033  RH  043%=      5-min Rain = 0
KCL2 120308Z 03010KT 09/M03 A3028 RMK A01 T00871033  RH  043%=      5-min Rain = 0
KCL2 120309Z 03009KT 09/M03 A3028 RMK A01 T00871033  RH  042%=      5-min Rain = 0
KCL2 120310Z 03009KT 09/M03 A3028 RMK A01 T00871033  RH  042%=      5-min Rain = 0
KCL2 120311Z 03008KT 09/M03 A3028 RMK A01 T00871033  RH  043%=      5-min Rain = 0
KCL2 120312Z 03009KT 09/M03 A3028 RMK A01 T00871033  RH  043%=      5-min Rain = 0
KCL2 120313Z 03009KT 09/M03 A3028 RMK A01 T00871034  RH  042%=      5-min Rain = 0
KCL2 120314Z 03011KT 09/M03 A3028 RMK A01 T00881033  RH  042%=      5-min Rain = 0
KCL2 120315Z 03010KT 09/M03 A3028 RMK A01 T00881033  RH  042%=      5-min Rain = 0
KCL2 120316Z 03010KT 09/M03 A3029 RMK A01 T00881033  RH  042%=      5-min Rain = 0
KCL2 120317Z 03009KT 09/M03 A3029 RMK A01 T00881033  RH  042%=      5-min Rain = 0
KCL2 120318Z 03009KT 09/M03 A3029 RMK A01 T00891032  RH  042%=      5-min Rain = 0
KCL2 120319Z 03010KT 09/M03 A3029 RMK A01 T00891032  RH  042%=      5-min Rain = 0
KCL2 120320Z 03010KT 09/M03 A3029 RMK A01 T00891032  RH  042%=      5-min Rain = 0
KCL2 120321Z 03010KT 09/M03 A3029 RMK A01 T00891033  RH  042%=      5-min Rain = 0
KCL2 120322Z 03010KT 09/M03 A3029 RMK A01 T00891033  RH  042%=      5-min Rain = 0
KCL2 120323Z 03010KT 09/M03 A3029 RMK A01 T00901033  RH  042%=      5-min Rain = 0
KCL2 120324Z 03010KT 09/M03 A3029 RMK A01 T00901033  RH  042%=      5-min Rain = 0
KCL2 120325Z 03010KT 09/M03 A3029 RMK A01 T00901032  RH  042%=      5-min Rain = 0
KCL2 120326Z 03011KT 09/M03 A3029 RMK A01 T00891033  RH  042%=      5-min Rain = 0
KCL2 120327Z 03010KT 09/M03 A3029 RMK A01 T00901033  RH  042%=      5-min Rain = 0
KCL2 120328Z 03011KT 09/M03 A3029 RMK A01 T00901033  RH  042%=      5-min Rain = 0
KCL2 120329Z 04010G15KT 09/M03 A3029 RMK A01 T00901033  RH  042%=      5-min Rain = 0
KCL2 120330Z 03010KT 09/M03 A3029 RMK A01 T00891033  RH  042%=      5-min Rain = 0
KCL2 120331Z 03011KT 09/M03 A3029 RMK A01 T00901032  RH  042%=      5-min Rain = 0
KCL2 120332Z 03009KT 09/M03 A3029 RMK A01 T00901032  RH  042%=      5-min Rain = 0
KCL2 120333Z 03009KT 09/M03 A3029 RMK A01 T00901032  RH  042%=      5-min Rain = 0
KCL2 120334Z 03011KT 09/M03 A3029 RMK A01 T00891032  RH  042%=      5-min Rain = 0
KCL2 120335Z 03011KT 09/M03 A3029 RMK A01 T00901032  RH  042%=      5-min Rain = 0
KCL2 120336Z 03012KT 09/M03 A3029 RMK A01 T00901032  RH  042%=      5-min Rain = 0
KCL2 120337Z 03011KT 09/M03 A303 RMK A01 T00911032  RH  042%=      5-min Rain = 0
KCL2 120338Z 03012KT 09/M03 A303 RMK A01 T00911032  RH  042%=      5-min Rain = 0
KCL2 120339Z 03012KT 09/M03 A303 RMK A01 T00911033  RH  042%=      5-min Rain = 0
KCL2 120340Z 03012KT 09/M03 A303 RMK A01 T00911032  RH  042%=      5-min Rain = 0
KCL2 120341Z 03011KT 09/M03 A303 RMK A01 T00911032  RH  042%=      5-min Rain = 0
KCL2 120342Z 03012KT 09/M03 A303 RMK A01 T00911032  RH  042%=      5-min Rain = 0
KCL2 120343Z 03013KT 09/M03 A303 RMK A01 T00911033  RH  042%=      5-min Rain = 0
KCL2 120344Z 03011KT 09/M03 A303 RMK A01 T00921032  RH  041%=      5-min Rain = 0
KCL2 120345Z 03012KT 09/M03 A303 RMK A01 T00921032  RH  042%=      5-min Rain = 0
KCL2 120346Z 03011KT 09/M03 A303 RMK A01 T00921032  RH  042%=      5-min Rain = 0
KCL2 120347Z 03011KT 09/M03 A303 RMK A01 T00911032  RH  042%=      5-min Rain = 0
KCL2 120348Z 03012KT 09/M03 A303 RMK A01 T00911032  RH  042%=      5-min Rain = 0
KCL2 120349Z 03011KT 09/M03 A303 RMK A01 T00911031  RH  042%=      5-min Rain = 0
KCL2 120350Z 03012KT 09/M03 A303 RMK A01 T00911032  RH  042%=      5-min Rain = 0
KCL2 120351Z 03011KT 09/M03 A303 RMK A01 T00911032  RH  042%=      5-min Rain = 0
KCL2 120352Z 03011KT 09/M03 A303 RMK A01 T00901032  RH  042%=      5-min Rain = 0
KCL2 120353Z 03012KT 09/M03 A303 RMK A01 T00901032  RH  042%=      5-min Rain = 0
KCL2 120354Z 03013KT 09/M03 A303 RMK A01 T00901032  RH  042%=      5-min Rain = 0
KCL2 120355Z 03013KT 09/M03 A303 RMK A01 T00901032  RH  042%=      5-min Rain = 0
KCL2 120356Z 03012KT 09/M03 A303 RMK A01 T00901032  RH  042%=      5-min Rain = 0
KCL2 120357Z 03011KT 09/M03 A303 RMK A01 T00901032  RH  042%=      5-min Rain = 0
KCL2 120358Z 03013KT 09/M03 A303 RMK A01 T00901031  RH  042%=      5-min Rain = 0
KCL2 120359Z 03012KT 09/M03 A303 RMK A01 T00891032  RH  042%=      5-min Rain = 0
KCL2 120400Z 03013KT 09/M03 A303 RMK A01 T00891032  RH  043%=      5-min Rain = 0
KCL2 120401Z 03012KT 09/M03 A303 RMK A01 T00891032  RH  043%=      5-min Rain = 0
KCL2 120402Z 03011KT 09/M03 A303 RMK A01 T00891032  RH  042%=      5-min Rain = 0
KCL2 120403Z 03011KT 09/M03 A303 RMK A01 T00891032  RH  043%=      5-min Rain = 0
KCL2 120404Z 03011KT 09/M03 A303 RMK A01 T00891031  RH  043%=      5-min Rain = 0
KCL2 120405Z 03010KT 09/M03 A303 RMK A01 T00881031  RH  043%=      5-min Rain = 0
KCL2 120406Z 03010KT 09/M03 A303 RMK A01 T00871031  RH  043%=      5-min Rain = 0
KCL2 120407Z 03011KT 09/M03 A303 RMK A01 T00871031  RH  043%=      5-min Rain = 0
KCL2 120408Z 03011KT 09/M03 A303 RMK A01 T00871031  RH  043%=      5-min Rain = 0
KCL2 120409Z 03011KT 09/M03 A3031 RMK A01 T00871031  RH  043%=      5-min Rain = 0
KCL2 120410Z 03011KT 09/M03 A3031 RMK A01 T00871031  RH  043%=      5-min Rain = 0
KCL2 120411Z 03010KT 09/M03 A3031 RMK A01 T00871031  RH  043%=      5-min Rain = 0
KCL2 120412Z 03012KT 09/M03 A3031 RMK A01 T00871031  RH  043%=      5-min Rain = 0
KCL2 120413Z 03011KT 09/M03 A3031 RMK A01 T00871031  RH  043%=      5-min Rain = 0
KCL2 120414Z 03012KT 09/M03 A3031 RMK A01 T00871031  RH  043%=      5-min Rain = 0
KCL2 120415Z 03011KT 09/M03 A3031 RMK A01 T00871031  RH  043%=      5-min Rain = 0
KCL2 120416Z 03011KT 09/M03 A3031 RMK A01 T00871031  RH  043%=      5-min Rain = 0
KCL2 120417Z 03010KT 09/M03 A3031 RMK A01 T00871031  RH  043%=      5-min Rain = 0
KCL2 120418Z 03009G14KT 09/M03 A3031 RMK A01 T00861031  RH  044%=      5-min Rain = 0
KCL2 120419Z 04011KT 09/M03 A3031 RMK A01 T00861030  RH  044%=      5-min Rain = 0
KCL2 120420Z 03012KT 09/M03 A3031 RMK A01 T00861031  RH  044%=      5-min Rain = 0
KCL2 120421Z 03013KT 09/M03 A3031 RMK A01 T00861032  RH  043%=      5-min Rain = 0
KCL2 120422Z 03011KT 09/M03 A3031 RMK A01 T00861031  RH  043%=      5-min Rain = 0
KCL2 120423Z 03010KT 09/M03 A3031 RMK A01 T00861030  RH  044%=      5-min Rain = 0
KCL2 120424Z 04011KT 09/M03 A3031 RMK A01 T00861030  RH  044%=      5-min Rain = 0
KCL2 120425Z 04010KT 09/M03 A3031 RMK A01 T00851031  RH  044%=      5-min Rain = 0
KCL2 120426Z 04011KT 09/M03 A3031 RMK A01 T00851030  RH  044%=      5-min Rain = 0
KCL2 120427Z 03009KT 09/M03 A3031 RMK A01 T00851030  RH  044%=      5-min Rain = 0
KCL2 120428Z 04008KT 09/M03 A3031 RMK A01 T00851030  RH  044%=      5-min Rain = 0
KCL2 120429Z 04010KT 09/M03 A3031 RMK A01 T00851031  RH  044%=      5-min Rain = 0
KCL2 120430Z 04011KT 09/M03 A3031 RMK A01 T00851031  RH  044%=      5-min Rain = 0
KCL2 120431Z 04009KT 09/M03 A3032 RMK A01 T00851031  RH  044%=      5-min Rain = 0
KCL2 120432Z 04010KT 08/M03 A3032 RMK A01 T00841031  RH  044%=      5-min Rain = 0
KCL2 120433Z 04011KT 08/M03 A3032 RMK A01 T00841031  RH  044%=      5-min Rain = 0
KCL2 120434Z 04012KT 08/M03 A3032 RMK A01 T00841031  RH  044%=      5-min Rain = 0
KCL2 120435Z 03011KT 08/M03 A3032 RMK A01 T00841031  RH  044%=      5-min Rain = 0
KCL2 120436Z 03011KT 08/M03 A3032 RMK A01 T00841031  RH  044%=      5-min Rain = 0
KCL2 120437Z 04011KT 08/M03 A3032 RMK A01 T00841031  RH  044%=      5-min Rain = 0
KCL2 120438Z 03012KT 08/M03 A3032 RMK A01 T00841031  RH  044%=      5-min Rain = 0
KCL2 120439Z 03013KT 08/M03 A3032 RMK A01 T00841031  RH  044%=      5-min Rain = 0
KCL2 120440Z 03012KT 08/M03 A3032 RMK A01 T00841031  RH  044%=      5-min Rain = 0
KCL2 120441Z 03012KT 09/M03 A3032 RMK A01 T00851031  RH  044%=      5-min Rain = 0
KCL2 120442Z 04011KT 09/M03 A3032 RMK A01 T00851031  RH  044%=      5-min Rain = 0
KCL2 120443Z 04011KT 09/M03 A3032 RMK A01 T00851031  RH  044%=      5-min Rain = 0
KCL2 120444Z 03013KT 09/M03 A3032 RMK A01 T00851030  RH  044%=      5-min Rain = 0
KCL2 120445Z 03012KT 09/M03 A3032 RMK A01 T00851030  RH  044%=      5-min Rain = 0
KCL2 120446Z 04014KT 09/M03 A3032 RMK A01 T00851030  RH  044%=      5-min Rain = 0
KCL2 120447Z 04012KT 09/M03 A3032 RMK A01 T00851031  RH  044%=      5-min Rain = 0
KCL2 120448Z 04011KT 09/M03 A3032 RMK A01 T00851030  RH  044%=      5-min Rain = 0
KCL2 120449Z 04010KT 08/M03 A3032 RMK A01 T00841030  RH  044%=      5-min Rain = 0
KCL2 120450Z 04013KT 08/M03 A3032 RMK A01 T00841030  RH  045%=      5-min Rain = 0
KCL2 120451Z 03013KT 08/M03 A3032 RMK A01 T00841030  RH  044%=      5-min Rain = 0
KCL2 120452Z 04010KT 08/M03 A3032 RMK A01 T00841030  RH  044%=      5-min Rain = 0
KCL2 120453Z 03012KT 08/M03 A3032 RMK A01 T00841030  RH  045%=      5-min Rain = 0
KCL2 120454Z 03013KT 08/M03 A3032 RMK A01 T00841030  RH  044%=      5-min Rain = 0
KCL2 120455Z 04012KT 08/M03 A3032 RMK A01 T00841030  RH  044%=      5-min Rain = 0
KCL2 120456Z 04012KT 08/M03 A3032 RMK A01 T00841030  RH  045%=      5-min Rain = 0
KCL2 120457Z 04013KT 08/M03 A3032 RMK A01 T00841029  RH  045%=      5-min Rain = 0
KCL2 120458Z 04012KT 08/M03 A3032 RMK A01 T00841030  RH  045%=      5-min Rain = 0
KCL2 120459Z 04012G17KT 08/M03 A3032 RMK A01 T00831030  RH  045%=      5-min Rain = 0

Page generated in 0.0322 seconds.